<?xml version="1.0" encoding="UTF-8" standalone="no" ?>
<gpx xmlns="http://www.topografix.com/GPX/1/1" xmlns:xsi="http://www.w3.org/2001/XMLSchema-instance" xsi:schemaLocation="http://www.topografix.com/GPX/1/1 http://www.topografix.com/GPX/1/1/gpx.xsd" version="1.1" creator="VisuGPX - https://www.visugpx.com">
  <metadata>
    <name>Rando - Col de la Croix</name>
    <desc><![CDATA[La rando des Monts du matin pour grimper et avoir une bien belle vue.]]></desc>
  </metadata>
  <trk>
    <name><![CDATA[10-OCT-21 10:44:29]]></name>
    <trkseg>
      <trkpt lat="44.82381" lon="5.0438">
        <ele>291.42</ele>
        <time>2021-10-10T06:30:33Z</time>
      </trkpt>
      <trkpt lat="44.82381" lon="5.04377">
        <ele>290.94</ele>
        <time>2021-10-10T06:30:34Z</time>
      </trkpt>
      <trkpt lat="44.82394" lon="5.04371">
        <ele>289.97</ele>
        <time>2021-10-10T06:30:46Z</time>
      </trkpt>
      <trkpt lat="44.82399" lon="5.04371">
        <ele>287.57</ele>
        <time>2021-10-10T06:30:49Z</time>
      </trkpt>
      <trkpt lat="44.824" lon="5.04371">
        <ele>291.42</ele>
        <time>2021-10-10T06:30:50Z</time>
      </trkpt>
      <trkpt lat="44.82408" lon="5.04369">
        <ele>289.49</ele>
        <time>2021-10-10T06:30:56Z</time>
      </trkpt>
      <trkpt lat="44.82421" lon="5.04366">
        <ele>289.01</ele>
        <time>2021-10-10T06:31:06Z</time>
      </trkpt>
      <trkpt lat="44.82426" lon="5.04365">
        <ele>289.49</ele>
        <time>2021-10-10T06:31:12Z</time>
      </trkpt>
      <trkpt lat="44.82429" lon="5.04366">
        <ele>289.49</ele>
        <time>2021-10-10T06:31:15Z</time>
      </trkpt>
      <trkpt lat="44.82431" lon="5.04366">
        <ele>289.01</ele>
        <time>2021-10-10T06:31:17Z</time>
      </trkpt>
      <trkpt lat="44.82441" lon="5.04365">
        <ele>289.49</ele>
        <time>2021-10-10T06:31:28Z</time>
      </trkpt>
      <trkpt lat="44.82446" lon="5.04364">
        <ele>289.49</ele>
        <time>2021-10-10T06:31:33Z</time>
      </trkpt>
      <trkpt lat="44.82449" lon="5.04367">
        <ele>289.49</ele>
        <time>2021-10-10T06:31:35Z</time>
      </trkpt>
      <trkpt lat="44.82459" lon="5.04374">
        <ele>291.42</ele>
        <time>2021-10-10T06:31:41Z</time>
      </trkpt>
      <trkpt lat="44.82464" lon="5.04377">
        <ele>291.9</ele>
        <time>2021-10-10T06:31:45Z</time>
      </trkpt>
      <trkpt lat="44.82467" lon="5.04379">
        <ele>292.86</ele>
        <time>2021-10-10T06:31:48Z</time>
      </trkpt>
      <trkpt lat="44.82469" lon="5.04379">
        <ele>292.86</ele>
        <time>2021-10-10T06:31:49Z</time>
      </trkpt>
      <trkpt lat="44.8249" lon="5.04386">
        <ele>293.34</ele>
        <time>2021-10-10T06:32:02Z</time>
      </trkpt>
      <trkpt lat="44.82493" lon="5.04387">
        <ele>293.82</ele>
        <time>2021-10-10T06:32:04Z</time>
      </trkpt>
      <trkpt lat="44.82505" lon="5.04393">
        <ele>293.82</ele>
        <time>2021-10-10T06:32:14Z</time>
      </trkpt>
      <trkpt lat="44.82508" lon="5.04397">
        <ele>293.34</ele>
        <time>2021-10-10T06:32:18Z</time>
      </trkpt>
      <trkpt lat="44.82512" lon="5.04401">
        <ele>293.34</ele>
        <time>2021-10-10T06:32:22Z</time>
      </trkpt>
      <trkpt lat="44.82518" lon="5.04405">
        <ele>292.86</ele>
        <time>2021-10-10T06:32:28Z</time>
      </trkpt>
      <trkpt lat="44.82526" lon="5.04415">
        <ele>292.38</ele>
        <time>2021-10-10T06:32:35Z</time>
      </trkpt>
      <trkpt lat="44.82537" lon="5.0443">
        <ele>290.94</ele>
        <time>2021-10-10T06:32:48Z</time>
      </trkpt>
      <trkpt lat="44.82538" lon="5.04433">
        <ele>290.94</ele>
        <time>2021-10-10T06:32:50Z</time>
      </trkpt>
      <trkpt lat="44.82544" lon="5.04462">
        <ele>291.42</ele>
        <time>2021-10-10T06:33:03Z</time>
      </trkpt>
      <trkpt lat="44.82548" lon="5.04474">
        <ele>291.42</ele>
        <time>2021-10-10T06:33:07Z</time>
      </trkpt>
      <trkpt lat="44.8255" lon="5.04486">
        <ele>291.9</ele>
        <time>2021-10-10T06:33:13Z</time>
      </trkpt>
      <trkpt lat="44.8255" lon="5.0449">
        <ele>291.9</ele>
        <time>2021-10-10T06:33:16Z</time>
      </trkpt>
      <trkpt lat="44.8255" lon="5.04508">
        <ele>292.86</ele>
        <time>2021-10-10T06:33:25Z</time>
      </trkpt>
      <trkpt lat="44.8255" lon="5.04513">
        <ele>293.34</ele>
        <time>2021-10-10T06:33:27Z</time>
      </trkpt>
      <trkpt lat="44.82547" lon="5.04527">
        <ele>294.3</ele>
        <time>2021-10-10T06:33:35Z</time>
      </trkpt>
      <trkpt lat="44.82546" lon="5.04537">
        <ele>295.26</ele>
        <time>2021-10-10T06:33:41Z</time>
      </trkpt>
      <trkpt lat="44.82547" lon="5.04548">
        <ele>296.22</ele>
        <time>2021-10-10T06:33:48Z</time>
      </trkpt>
      <trkpt lat="44.82548" lon="5.04557">
        <ele>297.18</ele>
        <time>2021-10-10T06:33:54Z</time>
      </trkpt>
      <trkpt lat="44.82551" lon="5.04567">
        <ele>299.11</ele>
        <time>2021-10-10T06:34:02Z</time>
      </trkpt>
      <trkpt lat="44.82553" lon="5.0457">
        <ele>299.59</ele>
        <time>2021-10-10T06:34:05Z</time>
      </trkpt>
      <trkpt lat="44.82554" lon="5.04571">
        <ele>300.07</ele>
        <time>2021-10-10T06:34:07Z</time>
      </trkpt>
      <trkpt lat="44.82558" lon="5.04574">
        <ele>300.55</ele>
        <time>2021-10-10T06:34:11Z</time>
      </trkpt>
      <trkpt lat="44.82572" lon="5.0458">
        <ele>303.43</ele>
        <time>2021-10-10T06:34:23Z</time>
      </trkpt>
      <trkpt lat="44.82577" lon="5.04583">
        <ele>304.39</ele>
        <time>2021-10-10T06:34:28Z</time>
      </trkpt>
      <trkpt lat="44.8258" lon="5.04586">
        <ele>304.88</ele>
        <time>2021-10-10T06:34:31Z</time>
      </trkpt>
      <trkpt lat="44.82593" lon="5.04601">
        <ele>305.84</ele>
        <time>2021-10-10T06:34:44Z</time>
      </trkpt>
      <trkpt lat="44.82603" lon="5.04613">
        <ele>305.36</ele>
        <time>2021-10-10T06:34:53Z</time>
      </trkpt>
      <trkpt lat="44.8261" lon="5.04626">
        <ele>305.36</ele>
        <time>2021-10-10T06:35:01Z</time>
      </trkpt>
      <trkpt lat="44.82617" lon="5.04635">
        <ele>303.91</ele>
        <time>2021-10-10T06:35:08Z</time>
      </trkpt>
      <trkpt lat="44.82623" lon="5.04643">
        <ele>303.43</ele>
        <time>2021-10-10T06:35:14Z</time>
      </trkpt>
      <trkpt lat="44.82626" lon="5.04652">
        <ele>302.47</ele>
        <time>2021-10-10T06:35:19Z</time>
      </trkpt>
      <trkpt lat="44.82631" lon="5.0467">
        <ele>301.51</ele>
        <time>2021-10-10T06:35:29Z</time>
      </trkpt>
      <trkpt lat="44.82632" lon="5.04674">
        <ele>301.03</ele>
        <time>2021-10-10T06:35:32Z</time>
      </trkpt>
      <trkpt lat="44.82635" lon="5.04689">
        <ele>300.55</ele>
        <time>2021-10-10T06:35:39Z</time>
      </trkpt>
      <trkpt lat="44.82636" lon="5.04713">
        <ele>300.07</ele>
        <time>2021-10-10T06:35:51Z</time>
      </trkpt>
      <trkpt lat="44.82636" lon="5.04719">
        <ele>300.07</ele>
        <time>2021-10-10T06:35:55Z</time>
      </trkpt>
      <trkpt lat="44.82636" lon="5.04743">
        <ele>299.59</ele>
        <time>2021-10-10T06:36:06Z</time>
      </trkpt>
      <trkpt lat="44.82635" lon="5.04753">
        <ele>299.11</ele>
        <time>2021-10-10T06:36:16Z</time>
      </trkpt>
      <trkpt lat="44.82634" lon="5.04755">
        <ele>299.11</ele>
        <time>2021-10-10T06:36:25Z</time>
      </trkpt>
      <trkpt lat="44.82631" lon="5.04776">
        <ele>300.55</ele>
        <time>2021-10-10T06:36:37Z</time>
      </trkpt>
      <trkpt lat="44.82626" lon="5.04797">
        <ele>301.51</ele>
        <time>2021-10-10T06:36:46Z</time>
      </trkpt>
      <trkpt lat="44.82621" lon="5.04806">
        <ele>301.99</ele>
        <time>2021-10-10T06:36:52Z</time>
      </trkpt>
      <trkpt lat="44.82619" lon="5.04814">
        <ele>302.47</ele>
        <time>2021-10-10T06:36:56Z</time>
      </trkpt>
      <trkpt lat="44.82613" lon="5.04829">
        <ele>303.43</ele>
        <time>2021-10-10T06:37:04Z</time>
      </trkpt>
      <trkpt lat="44.82611" lon="5.04835">
        <ele>303.91</ele>
        <time>2021-10-10T06:37:08Z</time>
      </trkpt>
      <trkpt lat="44.82609" lon="5.04841">
        <ele>304.39</ele>
        <time>2021-10-10T06:37:11Z</time>
      </trkpt>
      <trkpt lat="44.82604" lon="5.04854">
        <ele>305.36</ele>
        <time>2021-10-10T06:37:19Z</time>
      </trkpt>
      <trkpt lat="44.82601" lon="5.04868">
        <ele>306.8</ele>
        <time>2021-10-10T06:37:27Z</time>
      </trkpt>
      <trkpt lat="44.82601" lon="5.04877">
        <ele>307.76</ele>
        <time>2021-10-10T06:37:32Z</time>
      </trkpt>
      <trkpt lat="44.82599" lon="5.04884">
        <ele>308.72</ele>
        <time>2021-10-10T06:37:36Z</time>
      </trkpt>
      <trkpt lat="44.82599" lon="5.0489">
        <ele>309.2</ele>
        <time>2021-10-10T06:37:39Z</time>
      </trkpt>
      <trkpt lat="44.82595" lon="5.04896">
        <ele>310.16</ele>
        <time>2021-10-10T06:37:44Z</time>
      </trkpt>
      <trkpt lat="44.82594" lon="5.04903">
        <ele>311.12</ele>
        <time>2021-10-10T06:37:49Z</time>
      </trkpt>
      <trkpt lat="44.82588" lon="5.0492">
        <ele>313.53</ele>
        <time>2021-10-10T06:38:01Z</time>
      </trkpt>
      <trkpt lat="44.82587" lon="5.04923">
        <ele>314.01</ele>
        <time>2021-10-10T06:38:04Z</time>
      </trkpt>
      <trkpt lat="44.82587" lon="5.04929">
        <ele>314.49</ele>
        <time>2021-10-10T06:38:07Z</time>
      </trkpt>
      <trkpt lat="44.82585" lon="5.04948">
        <ele>316.89</ele>
        <time>2021-10-10T06:38:19Z</time>
      </trkpt>
      <trkpt lat="44.82583" lon="5.04961">
        <ele>319.3</ele>
        <time>2021-10-10T06:38:29Z</time>
      </trkpt>
      <trkpt lat="44.82581" lon="5.04964">
        <ele>320.26</ele>
        <time>2021-10-10T06:38:33Z</time>
      </trkpt>
      <trkpt lat="44.82577" lon="5.04969">
        <ele>321.22</ele>
        <time>2021-10-10T06:38:39Z</time>
      </trkpt>
      <trkpt lat="44.82568" lon="5.04976">
        <ele>324.58</ele>
        <time>2021-10-10T06:38:52Z</time>
      </trkpt>
      <trkpt lat="44.82563" lon="5.04984">
        <ele>326.5</ele>
        <time>2021-10-10T06:39:00Z</time>
      </trkpt>
      <trkpt lat="44.8256" lon="5.04989">
        <ele>327.47</ele>
        <time>2021-10-10T06:39:04Z</time>
      </trkpt>
      <trkpt lat="44.82555" lon="5.05002">
        <ele>329.87</ele>
        <time>2021-10-10T06:39:14Z</time>
      </trkpt>
      <trkpt lat="44.82552" lon="5.05008">
        <ele>330.35</ele>
        <time>2021-10-10T06:39:18Z</time>
      </trkpt>
      <trkpt lat="44.82548" lon="5.05017">
        <ele>331.79</ele>
        <time>2021-10-10T06:39:25Z</time>
      </trkpt>
      <trkpt lat="44.82548" lon="5.05022">
        <ele>332.27</ele>
        <time>2021-10-10T06:39:28Z</time>
      </trkpt>
      <trkpt lat="44.82554" lon="5.0503">
        <ele>334.2</ele>
        <time>2021-10-10T06:39:35Z</time>
      </trkpt>
      <trkpt lat="44.82556" lon="5.05036">
        <ele>334.68</ele>
        <time>2021-10-10T06:39:39Z</time>
      </trkpt>
      <trkpt lat="44.82563" lon="5.05047">
        <ele>335.64</ele>
        <time>2021-10-10T06:39:47Z</time>
      </trkpt>
      <trkpt lat="44.82565" lon="5.0505">
        <ele>335.64</ele>
        <time>2021-10-10T06:39:49Z</time>
      </trkpt>
      <trkpt lat="44.82574" lon="5.05061">
        <ele>336.12</ele>
        <time>2021-10-10T06:40:00Z</time>
      </trkpt>
      <trkpt lat="44.82583" lon="5.05073">
        <ele>336.6</ele>
        <time>2021-10-10T06:40:11Z</time>
      </trkpt>
      <trkpt lat="44.82597" lon="5.05088">
        <ele>337.56</ele>
        <time>2021-10-10T06:40:23Z</time>
      </trkpt>
      <trkpt lat="44.82605" lon="5.05102">
        <ele>337.56</ele>
        <time>2021-10-10T06:40:35Z</time>
      </trkpt>
      <trkpt lat="44.82605" lon="5.05104">
        <ele>337.56</ele>
        <time>2021-10-10T06:40:36Z</time>
      </trkpt>
      <trkpt lat="44.82608" lon="5.05107">
        <ele>337.56</ele>
        <time>2021-10-10T06:40:38Z</time>
      </trkpt>
      <trkpt lat="44.82612" lon="5.05118">
        <ele>337.56</ele>
        <time>2021-10-10T06:40:44Z</time>
      </trkpt>
      <trkpt lat="44.82615" lon="5.05122">
        <ele>337.56</ele>
        <time>2021-10-10T06:40:46Z</time>
      </trkpt>
      <trkpt lat="44.82618" lon="5.05129">
        <ele>337.08</ele>
        <time>2021-10-10T06:40:49Z</time>
      </trkpt>
      <trkpt lat="44.82619" lon="5.05133">
        <ele>337.08</ele>
        <time>2021-10-10T06:40:51Z</time>
      </trkpt>
      <trkpt lat="44.82621" lon="5.05134">
        <ele>337.08</ele>
        <time>2021-10-10T06:40:52Z</time>
      </trkpt>
      <trkpt lat="44.82625" lon="5.05147">
        <ele>337.08</ele>
        <time>2021-10-10T06:40:59Z</time>
      </trkpt>
      <trkpt lat="44.82631" lon="5.05155">
        <ele>337.08</ele>
        <time>2021-10-10T06:41:03Z</time>
      </trkpt>
      <trkpt lat="44.82636" lon="5.05163">
        <ele>336.6</ele>
        <time>2021-10-10T06:41:08Z</time>
      </trkpt>
      <trkpt lat="44.82643" lon="5.05182">
        <ele>336.6</ele>
        <time>2021-10-10T06:41:18Z</time>
      </trkpt>
      <trkpt lat="44.82644" lon="5.05188">
        <ele>336.6</ele>
        <time>2021-10-10T06:41:23Z</time>
      </trkpt>
      <trkpt lat="44.82644" lon="5.05192">
        <ele>336.6</ele>
        <time>2021-10-10T06:41:25Z</time>
      </trkpt>
      <trkpt lat="44.82644" lon="5.05213">
        <ele>337.56</ele>
        <time>2021-10-10T06:41:35Z</time>
      </trkpt>
      <trkpt lat="44.82644" lon="5.05216">
        <ele>337.56</ele>
        <time>2021-10-10T06:41:37Z</time>
      </trkpt>
      <trkpt lat="44.82644" lon="5.05235">
        <ele>339</ele>
        <time>2021-10-10T06:41:48Z</time>
      </trkpt>
      <trkpt lat="44.82646" lon="5.05241">
        <ele>339</ele>
        <time>2021-10-10T06:41:52Z</time>
      </trkpt>
      <trkpt lat="44.82649" lon="5.05256">
        <ele>339</ele>
        <time>2021-10-10T06:42:01Z</time>
      </trkpt>
      <trkpt lat="44.82649" lon="5.05264">
        <ele>339.48</ele>
        <time>2021-10-10T06:42:06Z</time>
      </trkpt>
      <trkpt lat="44.82644" lon="5.05278">
        <ele>339.96</ele>
        <time>2021-10-10T06:42:16Z</time>
      </trkpt>
      <trkpt lat="44.82642" lon="5.05285">
        <ele>340.44</ele>
        <time>2021-10-10T06:42:21Z</time>
      </trkpt>
      <trkpt lat="44.82639" lon="5.05289">
        <ele>340.92</ele>
        <time>2021-10-10T06:42:24Z</time>
      </trkpt>
      <trkpt lat="44.82636" lon="5.05295">
        <ele>341.41</ele>
        <time>2021-10-10T06:42:28Z</time>
      </trkpt>
      <trkpt lat="44.82633" lon="5.05309">
        <ele>342.85</ele>
        <time>2021-10-10T06:42:36Z</time>
      </trkpt>
      <trkpt lat="44.82629" lon="5.05317">
        <ele>343.33</ele>
        <time>2021-10-10T06:42:41Z</time>
      </trkpt>
      <trkpt lat="44.8262" lon="5.05322">
        <ele>344.29</ele>
        <time>2021-10-10T06:42:50Z</time>
      </trkpt>
      <trkpt lat="44.82613" lon="5.05328">
        <ele>345.25</ele>
        <time>2021-10-10T06:42:57Z</time>
      </trkpt>
      <trkpt lat="44.8261" lon="5.05334">
        <ele>346.21</ele>
        <time>2021-10-10T06:43:01Z</time>
      </trkpt>
      <trkpt lat="44.82608" lon="5.05338">
        <ele>346.69</ele>
        <time>2021-10-10T06:43:15Z</time>
      </trkpt>
      <trkpt lat="44.82609" lon="5.05343">
        <ele>347.65</ele>
        <time>2021-10-10T06:43:39Z</time>
      </trkpt>
      <trkpt lat="44.82607" lon="5.05347">
        <ele>349.1</ele>
        <time>2021-10-10T06:44:04Z</time>
      </trkpt>
      <trkpt lat="44.82604" lon="5.05352">
        <ele>350.06</ele>
        <time>2021-10-10T06:44:10Z</time>
      </trkpt>
      <trkpt lat="44.82597" lon="5.05363">
        <ele>352.46</ele>
        <time>2021-10-10T06:44:21Z</time>
      </trkpt>
      <trkpt lat="44.82593" lon="5.05367">
        <ele>353.42</ele>
        <time>2021-10-10T06:44:25Z</time>
      </trkpt>
      <trkpt lat="44.82591" lon="5.05373">
        <ele>354.38</ele>
        <time>2021-10-10T06:44:29Z</time>
      </trkpt>
      <trkpt lat="44.82592" lon="5.0538">
        <ele>355.34</ele>
        <time>2021-10-10T06:44:34Z</time>
      </trkpt>
      <trkpt lat="44.82592" lon="5.05385">
        <ele>356.79</ele>
        <time>2021-10-10T06:44:38Z</time>
      </trkpt>
      <trkpt lat="44.82589" lon="5.05402">
        <ele>360.15</ele>
        <time>2021-10-10T06:44:51Z</time>
      </trkpt>
      <trkpt lat="44.8259" lon="5.05408">
        <ele>361.11</ele>
        <time>2021-10-10T06:44:55Z</time>
      </trkpt>
      <trkpt lat="44.82592" lon="5.05429">
        <ele>364</ele>
        <time>2021-10-10T06:45:09Z</time>
      </trkpt>
      <trkpt lat="44.82593" lon="5.05434">
        <ele>364.48</ele>
        <time>2021-10-10T06:45:13Z</time>
      </trkpt>
      <trkpt lat="44.82591" lon="5.05442">
        <ele>365.92</ele>
        <time>2021-10-10T06:45:19Z</time>
      </trkpt>
      <trkpt lat="44.82593" lon="5.05453">
        <ele>367.36</ele>
        <time>2021-10-10T06:45:27Z</time>
      </trkpt>
      <trkpt lat="44.82598" lon="5.0546">
        <ele>368.32</ele>
        <time>2021-10-10T06:45:32Z</time>
      </trkpt>
      <trkpt lat="44.8261" lon="5.05478">
        <ele>370.73</ele>
        <time>2021-10-10T06:45:45Z</time>
      </trkpt>
      <trkpt lat="44.82616" lon="5.05487">
        <ele>372.65</ele>
        <time>2021-10-10T06:45:56Z</time>
      </trkpt>
      <trkpt lat="44.82618" lon="5.05489">
        <ele>373.13</ele>
        <time>2021-10-10T06:45:58Z</time>
      </trkpt>
      <trkpt lat="44.82622" lon="5.05494">
        <ele>373.61</ele>
        <time>2021-10-10T06:46:02Z</time>
      </trkpt>
      <trkpt lat="44.82624" lon="5.05498">
        <ele>374.09</ele>
        <time>2021-10-10T06:46:05Z</time>
      </trkpt>
      <trkpt lat="44.82629" lon="5.05512">
        <ele>374.57</ele>
        <time>2021-10-10T06:46:13Z</time>
      </trkpt>
      <trkpt lat="44.8263" lon="5.05522">
        <ele>376.01</ele>
        <time>2021-10-10T06:46:19Z</time>
      </trkpt>
      <trkpt lat="44.82629" lon="5.05525">
        <ele>376.01</ele>
        <time>2021-10-10T06:46:21Z</time>
      </trkpt>
      <trkpt lat="44.82634" lon="5.05537">
        <ele>377.94</ele>
        <time>2021-10-10T06:46:30Z</time>
      </trkpt>
      <trkpt lat="44.82636" lon="5.05543">
        <ele>378.9</ele>
        <time>2021-10-10T06:46:34Z</time>
      </trkpt>
      <trkpt lat="44.82637" lon="5.0555">
        <ele>380.34</ele>
        <time>2021-10-10T06:46:39Z</time>
      </trkpt>
      <trkpt lat="44.82641" lon="5.05558">
        <ele>383.7</ele>
        <time>2021-10-10T06:46:51Z</time>
      </trkpt>
      <trkpt lat="44.82648" lon="5.05558">
        <ele>385.15</ele>
        <time>2021-10-10T06:47:02Z</time>
      </trkpt>
      <trkpt lat="44.82658" lon="5.05564">
        <ele>388.03</ele>
        <time>2021-10-10T06:47:14Z</time>
      </trkpt>
      <trkpt lat="44.82665" lon="5.05572">
        <ele>389.95</ele>
        <time>2021-10-10T06:47:23Z</time>
      </trkpt>
      <trkpt lat="44.82668" lon="5.05576">
        <ele>391.39</ele>
        <time>2021-10-10T06:47:28Z</time>
      </trkpt>
      <trkpt lat="44.82675" lon="5.05583">
        <ele>394.28</ele>
        <time>2021-10-10T06:47:39Z</time>
      </trkpt>
      <trkpt lat="44.82676" lon="5.05584">
        <ele>393.8</ele>
        <time>2021-10-10T06:47:41Z</time>
      </trkpt>
      <trkpt lat="44.82681" lon="5.05595">
        <ele>396.2</ele>
        <time>2021-10-10T06:47:51Z</time>
      </trkpt>
      <trkpt lat="44.82685" lon="5.05602">
        <ele>398.12</ele>
        <time>2021-10-10T06:47:57Z</time>
      </trkpt>
      <trkpt lat="44.82688" lon="5.05611">
        <ele>400.05</ele>
        <time>2021-10-10T06:48:05Z</time>
      </trkpt>
      <trkpt lat="44.82688" lon="5.05614">
        <ele>400.53</ele>
        <time>2021-10-10T06:48:08Z</time>
      </trkpt>
      <trkpt lat="44.82688" lon="5.05619">
        <ele>401.97</ele>
        <time>2021-10-10T06:48:12Z</time>
      </trkpt>
      <trkpt lat="44.82686" lon="5.05625">
        <ele>403.41</ele>
        <time>2021-10-10T06:48:24Z</time>
      </trkpt>
      <trkpt lat="44.82684" lon="5.05626">
        <ele>403.89</ele>
        <time>2021-10-10T06:48:46Z</time>
      </trkpt>
      <trkpt lat="44.82683" lon="5.05629">
        <ele>404.85</ele>
        <time>2021-10-10T06:48:51Z</time>
      </trkpt>
      <trkpt lat="44.82683" lon="5.05638">
        <ele>406.77</ele>
        <time>2021-10-10T06:49:01Z</time>
      </trkpt>
      <trkpt lat="44.82684" lon="5.05654">
        <ele>408.7</ele>
        <time>2021-10-10T06:49:14Z</time>
      </trkpt>
      <trkpt lat="44.82688" lon="5.05671">
        <ele>410.62</ele>
        <time>2021-10-10T06:49:28Z</time>
      </trkpt>
      <trkpt lat="44.82687" lon="5.05686">
        <ele>413.02</ele>
        <time>2021-10-10T06:49:39Z</time>
      </trkpt>
      <trkpt lat="44.82688" lon="5.05692">
        <ele>413.5</ele>
        <time>2021-10-10T06:49:43Z</time>
      </trkpt>
      <trkpt lat="44.82688" lon="5.05698">
        <ele>414.47</ele>
        <time>2021-10-10T06:49:47Z</time>
      </trkpt>
      <trkpt lat="44.82688" lon="5.05702">
        <ele>414.95</ele>
        <time>2021-10-10T06:49:51Z</time>
      </trkpt>
      <trkpt lat="44.8269" lon="5.05709">
        <ele>415.91</ele>
        <time>2021-10-10T06:49:55Z</time>
      </trkpt>
      <trkpt lat="44.82687" lon="5.0572">
        <ele>417.35</ele>
        <time>2021-10-10T06:50:05Z</time>
      </trkpt>
      <trkpt lat="44.82687" lon="5.05734">
        <ele>419.75</ele>
        <time>2021-10-10T06:50:17Z</time>
      </trkpt>
      <trkpt lat="44.82688" lon="5.05748">
        <ele>422.16</ele>
        <time>2021-10-10T06:50:31Z</time>
      </trkpt>
      <trkpt lat="44.82689" lon="5.05767">
        <ele>424.56</ele>
        <time>2021-10-10T06:50:44Z</time>
      </trkpt>
      <trkpt lat="44.82689" lon="5.05778">
        <ele>426.96</ele>
        <time>2021-10-10T06:50:55Z</time>
      </trkpt>
      <trkpt lat="44.82689" lon="5.05794">
        <ele>429.85</ele>
        <time>2021-10-10T06:51:08Z</time>
      </trkpt>
      <trkpt lat="44.82688" lon="5.05808">
        <ele>432.25</ele>
        <time>2021-10-10T06:51:20Z</time>
      </trkpt>
      <trkpt lat="44.82687" lon="5.0582">
        <ele>435.13</ele>
        <time>2021-10-10T06:51:34Z</time>
      </trkpt>
      <trkpt lat="44.82689" lon="5.05833">
        <ele>437.54</ele>
        <time>2021-10-10T06:51:46Z</time>
      </trkpt>
      <trkpt lat="44.82689" lon="5.05846">
        <ele>440.42</ele>
        <time>2021-10-10T06:52:00Z</time>
      </trkpt>
      <trkpt lat="44.82685" lon="5.05856">
        <ele>443.79</ele>
        <time>2021-10-10T06:52:11Z</time>
      </trkpt>
      <trkpt lat="44.82681" lon="5.05865">
        <ele>446.67</ele>
        <time>2021-10-10T06:52:22Z</time>
      </trkpt>
      <trkpt lat="44.8268" lon="5.05864">
        <ele>446.67</ele>
        <time>2021-10-10T06:52:38Z</time>
      </trkpt>
      <trkpt lat="44.8268" lon="5.05864">
        <ele>447.15</ele>
        <time>2021-10-10T06:53:07Z</time>
      </trkpt>
      <trkpt lat="44.82679" lon="5.05869">
        <ele>449.55</ele>
        <time>2021-10-10T06:53:32Z</time>
      </trkpt>
      <trkpt lat="44.82676" lon="5.05881">
        <ele>451.96</ele>
        <time>2021-10-10T06:53:43Z</time>
      </trkpt>
      <trkpt lat="44.82676" lon="5.05894">
        <ele>454.36</ele>
        <time>2021-10-10T06:53:54Z</time>
      </trkpt>
      <trkpt lat="44.82676" lon="5.05899">
        <ele>455.8</ele>
        <time>2021-10-10T06:53:58Z</time>
      </trkpt>
      <trkpt lat="44.82674" lon="5.05913">
        <ele>458.69</ele>
        <time>2021-10-10T06:54:11Z</time>
      </trkpt>
      <trkpt lat="44.82674" lon="5.05917">
        <ele>458.69</ele>
        <time>2021-10-10T06:54:14Z</time>
      </trkpt>
      <trkpt lat="44.8267" lon="5.05933">
        <ele>462.53</ele>
        <time>2021-10-10T06:54:31Z</time>
      </trkpt>
      <trkpt lat="44.82674" lon="5.05945">
        <ele>466.38</ele>
        <time>2021-10-10T06:54:47Z</time>
      </trkpt>
      <trkpt lat="44.8268" lon="5.05954">
        <ele>468.3</ele>
        <time>2021-10-10T06:54:59Z</time>
      </trkpt>
      <trkpt lat="44.82684" lon="5.05963">
        <ele>470.22</ele>
        <time>2021-10-10T06:55:10Z</time>
      </trkpt>
      <trkpt lat="44.82689" lon="5.05973">
        <ele>472.63</ele>
        <time>2021-10-10T06:55:21Z</time>
      </trkpt>
      <trkpt lat="44.82693" lon="5.05985">
        <ele>475.03</ele>
        <time>2021-10-10T06:55:32Z</time>
      </trkpt>
      <trkpt lat="44.82699" lon="5.05997">
        <ele>477.43</ele>
        <time>2021-10-10T06:55:44Z</time>
      </trkpt>
      <trkpt lat="44.82705" lon="5.06007">
        <ele>478.87</ele>
        <time>2021-10-10T06:55:54Z</time>
      </trkpt>
      <trkpt lat="44.82707" lon="5.06016">
        <ele>479.84</ele>
        <time>2021-10-10T06:56:00Z</time>
      </trkpt>
      <trkpt lat="44.82707" lon="5.06036">
        <ele>480.8</ele>
        <time>2021-10-10T06:56:13Z</time>
      </trkpt>
      <trkpt lat="44.82704" lon="5.0606">
        <ele>482.24</ele>
        <time>2021-10-10T06:56:27Z</time>
      </trkpt>
      <trkpt lat="44.82701" lon="5.06076">
        <ele>483.2</ele>
        <time>2021-10-10T06:56:38Z</time>
      </trkpt>
      <trkpt lat="44.82699" lon="5.06085">
        <ele>484.64</ele>
        <time>2021-10-10T06:56:47Z</time>
      </trkpt>
      <trkpt lat="44.82692" lon="5.06096">
        <ele>486.56</ele>
        <time>2021-10-10T06:56:59Z</time>
      </trkpt>
      <trkpt lat="44.82688" lon="5.06104">
        <ele>488.97</ele>
        <time>2021-10-10T06:57:11Z</time>
      </trkpt>
      <trkpt lat="44.82686" lon="5.06108">
        <ele>489.93</ele>
        <time>2021-10-10T06:57:14Z</time>
      </trkpt>
      <trkpt lat="44.82684" lon="5.06114">
        <ele>490.89</ele>
        <time>2021-10-10T06:57:18Z</time>
      </trkpt>
      <trkpt lat="44.82681" lon="5.06134">
        <ele>492.33</ele>
        <time>2021-10-10T06:57:31Z</time>
      </trkpt>
      <trkpt lat="44.8268" lon="5.06141">
        <ele>492.33</ele>
        <time>2021-10-10T06:57:35Z</time>
      </trkpt>
      <trkpt lat="44.82678" lon="5.06162">
        <ele>494.26</ele>
        <time>2021-10-10T06:57:49Z</time>
      </trkpt>
      <trkpt lat="44.82676" lon="5.06184">
        <ele>496.18</ele>
        <time>2021-10-10T06:58:04Z</time>
      </trkpt>
      <trkpt lat="44.82676" lon="5.06203">
        <ele>497.62</ele>
        <time>2021-10-10T06:58:17Z</time>
      </trkpt>
      <trkpt lat="44.82675" lon="5.06211">
        <ele>498.58</ele>
        <time>2021-10-10T06:58:22Z</time>
      </trkpt>
      <trkpt lat="44.82675" lon="5.06217">
        <ele>499.54</ele>
        <time>2021-10-10T06:58:26Z</time>
      </trkpt>
      <trkpt lat="44.82673" lon="5.0623">
        <ele>501.95</ele>
        <time>2021-10-10T06:58:37Z</time>
      </trkpt>
      <trkpt lat="44.82669" lon="5.06243">
        <ele>504.83</ele>
        <time>2021-10-10T06:58:48Z</time>
      </trkpt>
      <trkpt lat="44.82668" lon="5.06253">
        <ele>507.23</ele>
        <time>2021-10-10T06:59:00Z</time>
      </trkpt>
      <trkpt lat="44.82666" lon="5.06264">
        <ele>510.12</ele>
        <time>2021-10-10T06:59:12Z</time>
      </trkpt>
      <trkpt lat="44.82664" lon="5.06276">
        <ele>512.04</ele>
        <time>2021-10-10T06:59:23Z</time>
      </trkpt>
      <trkpt lat="44.82663" lon="5.06285">
        <ele>513.96</ele>
        <time>2021-10-10T06:59:31Z</time>
      </trkpt>
      <trkpt lat="44.82663" lon="5.06289">
        <ele>514.92</ele>
        <time>2021-10-10T06:59:34Z</time>
      </trkpt>
      <trkpt lat="44.82663" lon="5.06301">
        <ele>518.29</ele>
        <time>2021-10-10T06:59:47Z</time>
      </trkpt>
      <trkpt lat="44.82661" lon="5.06308">
        <ele>521.17</ele>
        <time>2021-10-10T06:59:57Z</time>
      </trkpt>
      <trkpt lat="44.8266" lon="5.06324">
        <ele>524.06</ele>
        <time>2021-10-10T07:00:11Z</time>
      </trkpt>
      <trkpt lat="44.82658" lon="5.0633">
        <ele>524.54</ele>
        <time>2021-10-10T07:00:16Z</time>
      </trkpt>
      <trkpt lat="44.82653" lon="5.06347">
        <ele>526.94</ele>
        <time>2021-10-10T07:00:28Z</time>
      </trkpt>
      <trkpt lat="44.82652" lon="5.0635">
        <ele>526.46</ele>
        <time>2021-10-10T07:00:30Z</time>
      </trkpt>
      <trkpt lat="44.8265" lon="5.06357">
        <ele>527.9</ele>
        <time>2021-10-10T07:00:43Z</time>
      </trkpt>
      <trkpt lat="44.8265" lon="5.06358">
        <ele>528.86</ele>
        <time>2021-10-10T07:00:49Z</time>
      </trkpt>
      <trkpt lat="44.82649" lon="5.06359">
        <ele>528.38</ele>
        <time>2021-10-10T07:01:03Z</time>
      </trkpt>
      <trkpt lat="44.82649" lon="5.06363">
        <ele>529.34</ele>
        <time>2021-10-10T07:01:06Z</time>
      </trkpt>
      <trkpt lat="44.82651" lon="5.06377">
        <ele>532.23</ele>
        <time>2021-10-10T07:01:20Z</time>
      </trkpt>
      <trkpt lat="44.82651" lon="5.06386">
        <ele>533.67</ele>
        <time>2021-10-10T07:01:27Z</time>
      </trkpt>
      <trkpt lat="44.82651" lon="5.06391">
        <ele>535.11</ele>
        <time>2021-10-10T07:01:41Z</time>
      </trkpt>
      <trkpt lat="44.82651" lon="5.06391">
        <ele>535.59</ele>
        <time>2021-10-10T07:02:15Z</time>
      </trkpt>
      <trkpt lat="44.8265" lon="5.06402">
        <ele>537.51</ele>
        <time>2021-10-10T07:02:31Z</time>
      </trkpt>
      <trkpt lat="44.82651" lon="5.06417">
        <ele>540.4</ele>
        <time>2021-10-10T07:02:45Z</time>
      </trkpt>
      <trkpt lat="44.82652" lon="5.06435">
        <ele>542.8</ele>
        <time>2021-10-10T07:02:59Z</time>
      </trkpt>
      <trkpt lat="44.82653" lon="5.06445">
        <ele>546.17</ele>
        <time>2021-10-10T07:03:13Z</time>
      </trkpt>
      <trkpt lat="44.82657" lon="5.06459">
        <ele>549.05</ele>
        <time>2021-10-10T07:03:25Z</time>
      </trkpt>
      <trkpt lat="44.82659" lon="5.06473">
        <ele>552.41</ele>
        <time>2021-10-10T07:03:38Z</time>
      </trkpt>
      <trkpt lat="44.82662" lon="5.06482">
        <ele>555.78</ele>
        <time>2021-10-10T07:03:49Z</time>
      </trkpt>
      <trkpt lat="44.82666" lon="5.06496">
        <ele>558.66</ele>
        <time>2021-10-10T07:04:04Z</time>
      </trkpt>
      <trkpt lat="44.82666" lon="5.06511">
        <ele>562.03</ele>
        <time>2021-10-10T07:04:17Z</time>
      </trkpt>
      <trkpt lat="44.82664" lon="5.06526">
        <ele>564.91</ele>
        <time>2021-10-10T07:04:30Z</time>
      </trkpt>
      <trkpt lat="44.82666" lon="5.06537">
        <ele>567.32</ele>
        <time>2021-10-10T07:04:42Z</time>
      </trkpt>
      <trkpt lat="44.82667" lon="5.06548">
        <ele>570.68</ele>
        <time>2021-10-10T07:04:54Z</time>
      </trkpt>
      <trkpt lat="44.82669" lon="5.06565">
        <ele>573.56</ele>
        <time>2021-10-10T07:05:08Z</time>
      </trkpt>
      <trkpt lat="44.8267" lon="5.06577">
        <ele>576.45</ele>
        <time>2021-10-10T07:05:20Z</time>
      </trkpt>
      <trkpt lat="44.8267" lon="5.06591">
        <ele>579.81</ele>
        <time>2021-10-10T07:05:36Z</time>
      </trkpt>
      <trkpt lat="44.82668" lon="5.06598">
        <ele>582.7</ele>
        <time>2021-10-10T07:05:47Z</time>
      </trkpt>
      <trkpt lat="44.82665" lon="5.06614">
        <ele>585.58</ele>
        <time>2021-10-10T07:06:01Z</time>
      </trkpt>
      <trkpt lat="44.82662" lon="5.06623">
        <ele>588.46</ele>
        <time>2021-10-10T07:06:11Z</time>
      </trkpt>
      <trkpt lat="44.82661" lon="5.06632">
        <ele>591.83</ele>
        <time>2021-10-10T07:06:23Z</time>
      </trkpt>
      <trkpt lat="44.82665" lon="5.06645">
        <ele>594.71</ele>
        <time>2021-10-10T07:06:36Z</time>
      </trkpt>
      <trkpt lat="44.82666" lon="5.06655">
        <ele>598.08</ele>
        <time>2021-10-10T07:06:51Z</time>
      </trkpt>
      <trkpt lat="44.82667" lon="5.06665">
        <ele>600.96</ele>
        <time>2021-10-10T07:07:03Z</time>
      </trkpt>
      <trkpt lat="44.82664" lon="5.06674">
        <ele>603.85</ele>
        <time>2021-10-10T07:07:17Z</time>
      </trkpt>
      <trkpt lat="44.8266" lon="5.0668">
        <ele>606.73</ele>
        <time>2021-10-10T07:07:28Z</time>
      </trkpt>
      <trkpt lat="44.82657" lon="5.06693">
        <ele>610.09</ele>
        <time>2021-10-10T07:07:42Z</time>
      </trkpt>
      <trkpt lat="44.82652" lon="5.06704">
        <ele>613.46</ele>
        <time>2021-10-10T07:07:55Z</time>
      </trkpt>
      <trkpt lat="44.82652" lon="5.06705">
        <ele>613.46</ele>
        <time>2021-10-10T07:07:56Z</time>
      </trkpt>
      <trkpt lat="44.82648" lon="5.06719">
        <ele>616.34</ele>
        <time>2021-10-10T07:08:09Z</time>
      </trkpt>
      <trkpt lat="44.82644" lon="5.06733">
        <ele>620.19</ele>
        <time>2021-10-10T07:08:22Z</time>
      </trkpt>
      <trkpt lat="44.82643" lon="5.06745">
        <ele>622.59</ele>
        <time>2021-10-10T07:08:33Z</time>
      </trkpt>
      <trkpt lat="44.82643" lon="5.06761">
        <ele>624.51</ele>
        <time>2021-10-10T07:08:45Z</time>
      </trkpt>
      <trkpt lat="44.82643" lon="5.06767">
        <ele>624.99</ele>
        <time>2021-10-10T07:08:49Z</time>
      </trkpt>
      <trkpt lat="44.82644" lon="5.06772">
        <ele>626.44</ele>
        <time>2021-10-10T07:08:53Z</time>
      </trkpt>
      <trkpt lat="44.82644" lon="5.06777">
        <ele>627.4</ele>
        <time>2021-10-10T07:08:57Z</time>
      </trkpt>
      <trkpt lat="44.82644" lon="5.06788">
        <ele>629.32</ele>
        <time>2021-10-10T07:09:10Z</time>
      </trkpt>
      <trkpt lat="44.82643" lon="5.06788">
        <ele>629.8</ele>
        <time>2021-10-10T07:09:30Z</time>
      </trkpt>
      <trkpt lat="44.82643" lon="5.06788">
        <ele>630.76</ele>
        <time>2021-10-10T07:10:00Z</time>
      </trkpt>
      <trkpt lat="44.82643" lon="5.06788">
        <ele>630.76</ele>
        <time>2021-10-10T07:10:27Z</time>
      </trkpt>
      <trkpt lat="44.82643" lon="5.06789">
        <ele>631.24</ele>
        <time>2021-10-10T07:10:51Z</time>
      </trkpt>
      <trkpt lat="44.82643" lon="5.06789">
        <ele>631.72</ele>
        <time>2021-10-10T07:10:56Z</time>
      </trkpt>
      <trkpt lat="44.82643" lon="5.06789">
        <ele>632.68</ele>
        <time>2021-10-10T07:11:08Z</time>
      </trkpt>
      <trkpt lat="44.82643" lon="5.06789">
        <ele>631.72</ele>
        <time>2021-10-10T07:11:10Z</time>
      </trkpt>
      <trkpt lat="44.82643" lon="5.06789">
        <ele>632.2</ele>
        <time>2021-10-10T07:11:32Z</time>
      </trkpt>
      <trkpt lat="44.82642" lon="5.0679">
        <ele>633.17</ele>
        <time>2021-10-10T07:11:49Z</time>
      </trkpt>
      <trkpt lat="44.82642" lon="5.06799">
        <ele>635.09</ele>
        <time>2021-10-10T07:12:00Z</time>
      </trkpt>
      <trkpt lat="44.82643" lon="5.06812">
        <ele>637.97</ele>
        <time>2021-10-10T07:12:12Z</time>
      </trkpt>
      <trkpt lat="44.82645" lon="5.06822">
        <ele>641.34</ele>
        <time>2021-10-10T07:12:24Z</time>
      </trkpt>
      <trkpt lat="44.82648" lon="5.06835">
        <ele>644.22</ele>
        <time>2021-10-10T07:12:35Z</time>
      </trkpt>
      <trkpt lat="44.8265" lon="5.06842">
        <ele>646.62</ele>
        <time>2021-10-10T07:12:43Z</time>
      </trkpt>
      <trkpt lat="44.82655" lon="5.06853">
        <ele>650.47</ele>
        <time>2021-10-10T07:12:58Z</time>
      </trkpt>
      <trkpt lat="44.82661" lon="5.06861">
        <ele>652.87</ele>
        <time>2021-10-10T07:13:08Z</time>
      </trkpt>
      <trkpt lat="44.82669" lon="5.06872">
        <ele>656.24</ele>
        <time>2021-10-10T07:13:21Z</time>
      </trkpt>
      <trkpt lat="44.82675" lon="5.06879">
        <ele>659.6</ele>
        <time>2021-10-10T07:13:34Z</time>
      </trkpt>
      <trkpt lat="44.82683" lon="5.0689">
        <ele>662.49</ele>
        <time>2021-10-10T07:13:48Z</time>
      </trkpt>
      <trkpt lat="44.82691" lon="5.06899">
        <ele>665.85</ele>
        <time>2021-10-10T07:14:02Z</time>
      </trkpt>
      <trkpt lat="44.82699" lon="5.06906">
        <ele>667.77</ele>
        <time>2021-10-10T07:14:14Z</time>
      </trkpt>
      <trkpt lat="44.82707" lon="5.06918">
        <ele>670.66</ele>
        <time>2021-10-10T07:14:27Z</time>
      </trkpt>
      <trkpt lat="44.82714" lon="5.06926">
        <ele>672.58</ele>
        <time>2021-10-10T07:14:36Z</time>
      </trkpt>
      <trkpt lat="44.82723" lon="5.06935">
        <ele>675.94</ele>
        <time>2021-10-10T07:14:49Z</time>
      </trkpt>
      <trkpt lat="44.8273" lon="5.06941">
        <ele>678.83</ele>
        <time>2021-10-10T07:15:01Z</time>
      </trkpt>
      <trkpt lat="44.8274" lon="5.0695">
        <ele>682.19</ele>
        <time>2021-10-10T07:15:13Z</time>
      </trkpt>
      <trkpt lat="44.82746" lon="5.06951">
        <ele>684.6</ele>
        <time>2021-10-10T07:15:25Z</time>
      </trkpt>
      <trkpt lat="44.82758" lon="5.06958">
        <ele>687.48</ele>
        <time>2021-10-10T07:15:38Z</time>
      </trkpt>
      <trkpt lat="44.82767" lon="5.06966">
        <ele>690.36</ele>
        <time>2021-10-10T07:15:52Z</time>
      </trkpt>
      <trkpt lat="44.82772" lon="5.06967">
        <ele>693.73</ele>
        <time>2021-10-10T07:16:04Z</time>
      </trkpt>
      <trkpt lat="44.8278" lon="5.06972">
        <ele>696.61</ele>
        <time>2021-10-10T07:16:18Z</time>
      </trkpt>
      <trkpt lat="44.82789" lon="5.06977">
        <ele>699.98</ele>
        <time>2021-10-10T07:16:31Z</time>
      </trkpt>
      <trkpt lat="44.82796" lon="5.06985">
        <ele>702.38</ele>
        <time>2021-10-10T07:16:44Z</time>
      </trkpt>
      <trkpt lat="44.82805" lon="5.06992">
        <ele>705.75</ele>
        <time>2021-10-10T07:16:58Z</time>
      </trkpt>
      <trkpt lat="44.82815" lon="5.07">
        <ele>708.63</ele>
        <time>2021-10-10T07:17:11Z</time>
      </trkpt>
      <trkpt lat="44.82822" lon="5.07003">
        <ele>711.51</ele>
        <time>2021-10-10T07:17:23Z</time>
      </trkpt>
      <trkpt lat="44.82823" lon="5.07004">
        <ele>711.99</ele>
        <time>2021-10-10T07:17:24Z</time>
      </trkpt>
      <trkpt lat="44.82827" lon="5.07007">
        <ele>713.44</ele>
        <time>2021-10-10T07:17:31Z</time>
      </trkpt>
      <trkpt lat="44.8283" lon="5.07009">
        <ele>714.4</ele>
        <time>2021-10-10T07:17:35Z</time>
      </trkpt>
      <trkpt lat="44.82834" lon="5.07013">
        <ele>717.28</ele>
        <time>2021-10-10T07:17:47Z</time>
      </trkpt>
      <trkpt lat="44.82841" lon="5.07022">
        <ele>720.65</ele>
        <time>2021-10-10T07:18:00Z</time>
      </trkpt>
      <trkpt lat="44.82847" lon="5.07028">
        <ele>722.57</ele>
        <time>2021-10-10T07:18:14Z</time>
      </trkpt>
      <trkpt lat="44.82851" lon="5.07032">
        <ele>724.97</ele>
        <time>2021-10-10T07:18:28Z</time>
      </trkpt>
      <trkpt lat="44.82857" lon="5.0704">
        <ele>727.37</ele>
        <time>2021-10-10T07:18:39Z</time>
      </trkpt>
      <trkpt lat="44.82862" lon="5.07042">
        <ele>728.82</ele>
        <time>2021-10-10T07:18:52Z</time>
      </trkpt>
      <trkpt lat="44.82866" lon="5.0705">
        <ele>731.7</ele>
        <time>2021-10-10T07:19:02Z</time>
      </trkpt>
      <trkpt lat="44.82871" lon="5.0706">
        <ele>732.18</ele>
        <time>2021-10-10T07:19:20Z</time>
      </trkpt>
      <trkpt lat="44.82873" lon="5.07065">
        <ele>735.55</ele>
        <time>2021-10-10T07:19:41Z</time>
      </trkpt>
      <trkpt lat="44.82879" lon="5.07077">
        <ele>738.91</ele>
        <time>2021-10-10T07:19:57Z</time>
      </trkpt>
      <trkpt lat="44.82881" lon="5.07079">
        <ele>740.83</ele>
        <time>2021-10-10T07:20:20Z</time>
      </trkpt>
      <trkpt lat="44.82885" lon="5.0708">
        <ele>742.28</ele>
        <time>2021-10-10T07:20:34Z</time>
      </trkpt>
      <trkpt lat="44.8289" lon="5.07087">
        <ele>744.68</ele>
        <time>2021-10-10T07:20:49Z</time>
      </trkpt>
      <trkpt lat="44.82901" lon="5.07103">
        <ele>746.12</ele>
        <time>2021-10-10T07:21:06Z</time>
      </trkpt>
      <trkpt lat="44.82903" lon="5.07107">
        <ele>748.04</ele>
        <time>2021-10-10T07:21:11Z</time>
      </trkpt>
      <trkpt lat="44.8291" lon="5.07115">
        <ele>751.41</ele>
        <time>2021-10-10T07:21:25Z</time>
      </trkpt>
      <trkpt lat="44.82914" lon="5.07119">
        <ele>755.25</ele>
        <time>2021-10-10T07:21:36Z</time>
      </trkpt>
      <trkpt lat="44.82921" lon="5.07131">
        <ele>757.66</ele>
        <time>2021-10-10T07:21:49Z</time>
      </trkpt>
      <trkpt lat="44.82929" lon="5.07138">
        <ele>760.54</ele>
        <time>2021-10-10T07:22:04Z</time>
      </trkpt>
      <trkpt lat="44.82939" lon="5.07142">
        <ele>763.42</ele>
        <time>2021-10-10T07:22:18Z</time>
      </trkpt>
      <trkpt lat="44.82951" lon="5.07145">
        <ele>766.31</ele>
        <time>2021-10-10T07:22:30Z</time>
      </trkpt>
      <trkpt lat="44.82956" lon="5.07145">
        <ele>766.79</ele>
        <time>2021-10-10T07:22:37Z</time>
      </trkpt>
      <trkpt lat="44.82968" lon="5.07153">
        <ele>770.15</ele>
        <time>2021-10-10T07:22:51Z</time>
      </trkpt>
      <trkpt lat="44.82977" lon="5.07163">
        <ele>770.15</ele>
        <time>2021-10-10T07:23:05Z</time>
      </trkpt>
      <trkpt lat="44.82985" lon="5.07165">
        <ele>772.08</ele>
        <time>2021-10-10T07:23:18Z</time>
      </trkpt>
      <trkpt lat="44.82996" lon="5.0717">
        <ele>774</ele>
        <time>2021-10-10T07:23:32Z</time>
      </trkpt>
      <trkpt lat="44.83007" lon="5.07179">
        <ele>776.88</ele>
        <time>2021-10-10T07:23:48Z</time>
      </trkpt>
      <trkpt lat="44.83014" lon="5.07183">
        <ele>779.77</ele>
        <time>2021-10-10T07:24:02Z</time>
      </trkpt>
      <trkpt lat="44.83013" lon="5.07196">
        <ele>782.65</ele>
        <time>2021-10-10T07:24:19Z</time>
      </trkpt>
      <trkpt lat="44.83007" lon="5.07193">
        <ele>783.61</ele>
        <time>2021-10-10T07:24:29Z</time>
      </trkpt>
      <trkpt lat="44.83002" lon="5.07189">
        <ele>786.98</ele>
        <time>2021-10-10T07:24:43Z</time>
      </trkpt>
      <trkpt lat="44.82992" lon="5.07189">
        <ele>790.34</ele>
        <time>2021-10-10T07:24:56Z</time>
      </trkpt>
      <trkpt lat="44.82985" lon="5.07195">
        <ele>794.19</ele>
        <time>2021-10-10T07:25:08Z</time>
      </trkpt>
      <trkpt lat="44.8299" lon="5.07206">
        <ele>796.11</ele>
        <time>2021-10-10T07:25:24Z</time>
      </trkpt>
      <trkpt lat="44.82994" lon="5.07218">
        <ele>799.47</ele>
        <time>2021-10-10T07:25:40Z</time>
      </trkpt>
      <trkpt lat="44.83" lon="5.07226">
        <ele>802.36</ele>
        <time>2021-10-10T07:25:52Z</time>
      </trkpt>
      <trkpt lat="44.83004" lon="5.07231">
        <ele>805.72</ele>
        <time>2021-10-10T07:26:06Z</time>
      </trkpt>
      <trkpt lat="44.8301" lon="5.07237">
        <ele>809.09</ele>
        <time>2021-10-10T07:26:18Z</time>
      </trkpt>
      <trkpt lat="44.83022" lon="5.0725">
        <ele>812.45</ele>
        <time>2021-10-10T07:26:32Z</time>
      </trkpt>
      <trkpt lat="44.8303" lon="5.0726">
        <ele>815.34</ele>
        <time>2021-10-10T07:26:45Z</time>
      </trkpt>
      <trkpt lat="44.83027" lon="5.07268">
        <ele>818.22</ele>
        <time>2021-10-10T07:26:58Z</time>
      </trkpt>
      <trkpt lat="44.83033" lon="5.07273">
        <ele>820.62</ele>
        <time>2021-10-10T07:27:12Z</time>
      </trkpt>
      <trkpt lat="44.83041" lon="5.07279">
        <ele>823.51</ele>
        <time>2021-10-10T07:27:27Z</time>
      </trkpt>
      <trkpt lat="44.83054" lon="5.07288">
        <ele>826.39</ele>
        <time>2021-10-10T07:27:43Z</time>
      </trkpt>
      <trkpt lat="44.83064" lon="5.07297">
        <ele>829.76</ele>
        <time>2021-10-10T07:27:57Z</time>
      </trkpt>
      <trkpt lat="44.83071" lon="5.07302">
        <ele>832.64</ele>
        <time>2021-10-10T07:28:08Z</time>
      </trkpt>
      <trkpt lat="44.83088" lon="5.07295">
        <ele>834.56</ele>
        <time>2021-10-10T07:28:24Z</time>
      </trkpt>
      <trkpt lat="44.83103" lon="5.07303">
        <ele>836.96</ele>
        <time>2021-10-10T07:28:38Z</time>
      </trkpt>
      <trkpt lat="44.83111" lon="5.07305">
        <ele>839.85</ele>
        <time>2021-10-10T07:28:52Z</time>
      </trkpt>
      <trkpt lat="44.83122" lon="5.07314">
        <ele>843.21</ele>
        <time>2021-10-10T07:29:06Z</time>
      </trkpt>
      <trkpt lat="44.83136" lon="5.07319">
        <ele>844.66</ele>
        <time>2021-10-10T07:29:19Z</time>
      </trkpt>
      <trkpt lat="44.8314" lon="5.07323">
        <ele>846.1</ele>
        <time>2021-10-10T07:29:23Z</time>
      </trkpt>
      <trkpt lat="44.8315" lon="5.07331">
        <ele>849.46</ele>
        <time>2021-10-10T07:29:36Z</time>
      </trkpt>
      <trkpt lat="44.83157" lon="5.07337">
        <ele>851.87</ele>
        <time>2021-10-10T07:29:49Z</time>
      </trkpt>
      <trkpt lat="44.83161" lon="5.07341">
        <ele>853.31</ele>
        <time>2021-10-10T07:30:05Z</time>
      </trkpt>
      <trkpt lat="44.83166" lon="5.07347">
        <ele>853.79</ele>
        <time>2021-10-10T07:30:17Z</time>
      </trkpt>
      <trkpt lat="44.83167" lon="5.07349">
        <ele>854.27</ele>
        <time>2021-10-10T07:30:31Z</time>
      </trkpt>
      <trkpt lat="44.83165" lon="5.07349">
        <ele>855.23</ele>
        <time>2021-10-10T07:30:46Z</time>
      </trkpt>
      <trkpt lat="44.83164" lon="5.07348">
        <ele>853.79</ele>
        <time>2021-10-10T07:31:10Z</time>
      </trkpt>
      <trkpt lat="44.83161" lon="5.07351">
        <ele>854.27</ele>
        <time>2021-10-10T07:31:25Z</time>
      </trkpt>
      <trkpt lat="44.83156" lon="5.07354">
        <ele>854.75</ele>
        <time>2021-10-10T07:31:30Z</time>
      </trkpt>
      <trkpt lat="44.83151" lon="5.07353">
        <ele>854.75</ele>
        <time>2021-10-10T07:31:34Z</time>
      </trkpt>
      <trkpt lat="44.83145" lon="5.07351">
        <ele>854.75</ele>
        <time>2021-10-10T07:31:39Z</time>
      </trkpt>
      <trkpt lat="44.83142" lon="5.0735">
        <ele>855.23</ele>
        <time>2021-10-10T07:31:41Z</time>
      </trkpt>
      <trkpt lat="44.8313" lon="5.0735">
        <ele>858.11</ele>
        <time>2021-10-10T07:31:52Z</time>
      </trkpt>
      <trkpt lat="44.83127" lon="5.07351">
        <ele>858.11</ele>
        <time>2021-10-10T07:31:55Z</time>
      </trkpt>
      <trkpt lat="44.83124" lon="5.07351">
        <ele>859.08</ele>
        <time>2021-10-10T07:31:58Z</time>
      </trkpt>
      <trkpt lat="44.8312" lon="5.07352">
        <ele>859.08</ele>
        <time>2021-10-10T07:32:02Z</time>
      </trkpt>
      <trkpt lat="44.8311" lon="5.07355">
        <ele>861.96</ele>
        <time>2021-10-10T07:32:12Z</time>
      </trkpt>
      <trkpt lat="44.83107" lon="5.07356">
        <ele>862.44</ele>
        <time>2021-10-10T07:32:15Z</time>
      </trkpt>
      <trkpt lat="44.83105" lon="5.07356">
        <ele>863.4</ele>
        <time>2021-10-10T07:32:17Z</time>
      </trkpt>
      <trkpt lat="44.83098" lon="5.07357">
        <ele>864.36</ele>
        <time>2021-10-10T07:32:24Z</time>
      </trkpt>
      <trkpt lat="44.83095" lon="5.07359">
        <ele>865.8</ele>
        <time>2021-10-10T07:32:28Z</time>
      </trkpt>
      <trkpt lat="44.8309" lon="5.0736">
        <ele>865.8</ele>
        <time>2021-10-10T07:32:33Z</time>
      </trkpt>
      <trkpt lat="44.83087" lon="5.07361">
        <ele>866.77</ele>
        <time>2021-10-10T07:32:37Z</time>
      </trkpt>
      <trkpt lat="44.83078" lon="5.07364">
        <ele>869.65</ele>
        <time>2021-10-10T07:32:49Z</time>
      </trkpt>
      <trkpt lat="44.83074" lon="5.07364">
        <ele>871.09</ele>
        <time>2021-10-10T07:32:53Z</time>
      </trkpt>
      <trkpt lat="44.83065" lon="5.07366">
        <ele>873.01</ele>
        <time>2021-10-10T07:33:03Z</time>
      </trkpt>
      <trkpt lat="44.83056" lon="5.07368">
        <ele>876.38</ele>
        <time>2021-10-10T07:33:17Z</time>
      </trkpt>
      <trkpt lat="44.83053" lon="5.07369">
        <ele>876.86</ele>
        <time>2021-10-10T07:33:20Z</time>
      </trkpt>
      <trkpt lat="44.83047" lon="5.0737">
        <ele>877.82</ele>
        <time>2021-10-10T07:33:25Z</time>
      </trkpt>
      <trkpt lat="44.83044" lon="5.0737">
        <ele>879.26</ele>
        <time>2021-10-10T07:33:27Z</time>
      </trkpt>
      <trkpt lat="44.83034" lon="5.0737">
        <ele>881.67</ele>
        <time>2021-10-10T07:33:37Z</time>
      </trkpt>
      <trkpt lat="44.83028" lon="5.07369">
        <ele>883.11</ele>
        <time>2021-10-10T07:33:45Z</time>
      </trkpt>
      <trkpt lat="44.83024" lon="5.07369">
        <ele>884.55</ele>
        <time>2021-10-10T07:33:49Z</time>
      </trkpt>
      <trkpt lat="44.83021" lon="5.07371">
        <ele>885.03</ele>
        <time>2021-10-10T07:33:53Z</time>
      </trkpt>
      <trkpt lat="44.83017" lon="5.07372">
        <ele>886.95</ele>
        <time>2021-10-10T07:33:57Z</time>
      </trkpt>
      <trkpt lat="44.83014" lon="5.07373">
        <ele>888.88</ele>
        <time>2021-10-10T07:34:02Z</time>
      </trkpt>
      <trkpt lat="44.83004" lon="5.07375">
        <ele>890.8</ele>
        <time>2021-10-10T07:34:13Z</time>
      </trkpt>
      <trkpt lat="44.82999" lon="5.07378">
        <ele>892.24</ele>
        <time>2021-10-10T07:34:21Z</time>
      </trkpt>
      <trkpt lat="44.82996" lon="5.07377">
        <ele>893.68</ele>
        <time>2021-10-10T07:34:24Z</time>
      </trkpt>
      <trkpt lat="44.82995" lon="5.07377">
        <ele>893.68</ele>
        <time>2021-10-10T07:34:25Z</time>
      </trkpt>
      <trkpt lat="44.82991" lon="5.07376">
        <ele>895.61</ele>
        <time>2021-10-10T07:34:30Z</time>
      </trkpt>
      <trkpt lat="44.82987" lon="5.07377">
        <ele>897.05</ele>
        <time>2021-10-10T07:34:34Z</time>
      </trkpt>
      <trkpt lat="44.82984" lon="5.07377">
        <ele>897.53</ele>
        <time>2021-10-10T07:34:38Z</time>
      </trkpt>
      <trkpt lat="44.82979" lon="5.07379">
        <ele>898.49</ele>
        <time>2021-10-10T07:34:45Z</time>
      </trkpt>
      <trkpt lat="44.82977" lon="5.07378">
        <ele>899.93</ele>
        <time>2021-10-10T07:34:48Z</time>
      </trkpt>
      <trkpt lat="44.82972" lon="5.07377">
        <ele>901.85</ele>
        <time>2021-10-10T07:34:53Z</time>
      </trkpt>
      <trkpt lat="44.82969" lon="5.07376">
        <ele>903.3</ele>
        <time>2021-10-10T07:35:04Z</time>
      </trkpt>
      <trkpt lat="44.82967" lon="5.07376">
        <ele>902.82</ele>
        <time>2021-10-10T07:35:19Z</time>
      </trkpt>
      <trkpt lat="44.82965" lon="5.07376">
        <ele>904.26</ele>
        <time>2021-10-10T07:35:21Z</time>
      </trkpt>
      <trkpt lat="44.82956" lon="5.07375">
        <ele>905.7</ele>
        <time>2021-10-10T07:35:31Z</time>
      </trkpt>
      <trkpt lat="44.82955" lon="5.07375">
        <ele>905.22</ele>
        <time>2021-10-10T07:35:32Z</time>
      </trkpt>
      <trkpt lat="44.82952" lon="5.07375">
        <ele>906.18</ele>
        <time>2021-10-10T07:35:34Z</time>
      </trkpt>
      <trkpt lat="44.82946" lon="5.07373">
        <ele>907.62</ele>
        <time>2021-10-10T07:35:40Z</time>
      </trkpt>
      <trkpt lat="44.82941" lon="5.07373">
        <ele>909.06</ele>
        <time>2021-10-10T07:35:45Z</time>
      </trkpt>
      <trkpt lat="44.8293" lon="5.0737">
        <ele>911.95</ele>
        <time>2021-10-10T07:35:55Z</time>
      </trkpt>
      <trkpt lat="44.82921" lon="5.07366">
        <ele>913.39</ele>
        <time>2021-10-10T07:36:05Z</time>
      </trkpt>
      <trkpt lat="44.82914" lon="5.07363">
        <ele>914.83</ele>
        <time>2021-10-10T07:36:17Z</time>
      </trkpt>
      <trkpt lat="44.82914" lon="5.07364">
        <ele>914.35</ele>
        <time>2021-10-10T07:36:41Z</time>
      </trkpt>
      <trkpt lat="44.8291" lon="5.07363">
        <ele>915.31</ele>
        <time>2021-10-10T07:36:51Z</time>
      </trkpt>
      <trkpt lat="44.82911" lon="5.07363">
        <ele>915.79</ele>
        <time>2021-10-10T07:36:56Z</time>
      </trkpt>
      <trkpt lat="44.82919" lon="5.07364">
        <ele>916.27</ele>
        <time>2021-10-10T07:37:08Z</time>
      </trkpt>
      <trkpt lat="44.82918" lon="5.07363">
        <ele>913.87</ele>
        <time>2021-10-10T07:37:21Z</time>
      </trkpt>
      <trkpt lat="44.82918" lon="5.07363">
        <ele>914.83</ele>
        <time>2021-10-10T07:37:42Z</time>
      </trkpt>
      <trkpt lat="44.82918" lon="5.07363">
        <ele>915.31</ele>
        <time>2021-10-10T07:37:51Z</time>
      </trkpt>
      <trkpt lat="44.82918" lon="5.07364">
        <ele>915.31</ele>
        <time>2021-10-10T07:38:08Z</time>
      </trkpt>
      <trkpt lat="44.82918" lon="5.07364">
        <ele>915.31</ele>
        <time>2021-10-10T07:38:30Z</time>
      </trkpt>
      <trkpt lat="44.82917" lon="5.07364">
        <ele>918.68</ele>
        <time>2021-10-10T07:38:36Z</time>
      </trkpt>
      <trkpt lat="44.82917" lon="5.07363">
        <ele>914.35</ele>
        <time>2021-10-10T07:38:47Z</time>
      </trkpt>
      <trkpt lat="44.82917" lon="5.07363">
        <ele>914.35</ele>
        <time>2021-10-10T07:38:48Z</time>
      </trkpt>
      <trkpt lat="44.82917" lon="5.07364">
        <ele>910.99</ele>
        <time>2021-10-10T07:38:49Z</time>
      </trkpt>
      <trkpt lat="44.82918" lon="5.07364">
        <ele>910.03</ele>
        <time>2021-10-10T07:38:50Z</time>
      </trkpt>
      <trkpt lat="44.82916" lon="5.07364">
        <ele>916.75</ele>
        <time>2021-10-10T07:38:52Z</time>
      </trkpt>
      <trkpt lat="44.82913" lon="5.07363">
        <ele>916.27</ele>
        <time>2021-10-10T07:38:54Z</time>
      </trkpt>
      <trkpt lat="44.82909" lon="5.07362">
        <ele>916.75</ele>
        <time>2021-10-10T07:38:58Z</time>
      </trkpt>
      <trkpt lat="44.82899" lon="5.07362">
        <ele>916.75</ele>
        <time>2021-10-10T07:39:07Z</time>
      </trkpt>
      <trkpt lat="44.8289" lon="5.07353">
        <ele>916.75</ele>
        <time>2021-10-10T07:39:20Z</time>
      </trkpt>
      <trkpt lat="44.82887" lon="5.0735">
        <ele>916.27</ele>
        <time>2021-10-10T07:39:34Z</time>
      </trkpt>
      <trkpt lat="44.82883" lon="5.07345">
        <ele>915.79</ele>
        <time>2021-10-10T07:39:39Z</time>
      </trkpt>
      <trkpt lat="44.82877" lon="5.0734">
        <ele>916.27</ele>
        <time>2021-10-10T07:39:44Z</time>
      </trkpt>
      <trkpt lat="44.82866" lon="5.07334">
        <ele>915.31</ele>
        <time>2021-10-10T07:39:55Z</time>
      </trkpt>
      <trkpt lat="44.82859" lon="5.07328">
        <ele>916.75</ele>
        <time>2021-10-10T07:40:03Z</time>
      </trkpt>
      <trkpt lat="44.82859" lon="5.07323">
        <ele>917.24</ele>
        <time>2021-10-10T07:40:14Z</time>
      </trkpt>
      <trkpt lat="44.82862" lon="5.07322">
        <ele>917.72</ele>
        <time>2021-10-10T07:40:21Z</time>
      </trkpt>
      <trkpt lat="44.82864" lon="5.07323">
        <ele>917.24</ele>
        <time>2021-10-10T07:40:37Z</time>
      </trkpt>
      <trkpt lat="44.82864" lon="5.07327">
        <ele>916.27</ele>
        <time>2021-10-10T07:40:45Z</time>
      </trkpt>
      <trkpt lat="44.82864" lon="5.07334">
        <ele>915.79</ele>
        <time>2021-10-10T07:40:51Z</time>
      </trkpt>
      <trkpt lat="44.82872" lon="5.07341">
        <ele>915.79</ele>
        <time>2021-10-10T07:41:00Z</time>
      </trkpt>
      <trkpt lat="44.82876" lon="5.07345">
        <ele>915.79</ele>
        <time>2021-10-10T07:41:05Z</time>
      </trkpt>
      <trkpt lat="44.82883" lon="5.07349">
        <ele>916.27</ele>
        <time>2021-10-10T07:41:18Z</time>
      </trkpt>
      <trkpt lat="44.82889" lon="5.07349">
        <ele>916.75</ele>
        <time>2021-10-10T07:41:32Z</time>
      </trkpt>
      <trkpt lat="44.82895" lon="5.07357">
        <ele>916.75</ele>
        <time>2021-10-10T07:41:40Z</time>
      </trkpt>
      <trkpt lat="44.82897" lon="5.07359">
        <ele>917.72</ele>
        <time>2021-10-10T07:41:42Z</time>
      </trkpt>
      <trkpt lat="44.82903" lon="5.0736">
        <ele>918.2</ele>
        <time>2021-10-10T07:41:47Z</time>
      </trkpt>
      <trkpt lat="44.82909" lon="5.07364">
        <ele>917.72</ele>
        <time>2021-10-10T07:41:53Z</time>
      </trkpt>
      <trkpt lat="44.82915" lon="5.07366">
        <ele>917.24</ele>
        <time>2021-10-10T07:41:58Z</time>
      </trkpt>
      <trkpt lat="44.82918" lon="5.07367">
        <ele>916.27</ele>
        <time>2021-10-10T07:42:01Z</time>
      </trkpt>
      <trkpt lat="44.82922" lon="5.07368">
        <ele>915.31</ele>
        <time>2021-10-10T07:42:05Z</time>
      </trkpt>
      <trkpt lat="44.82928" lon="5.0737">
        <ele>915.31</ele>
        <time>2021-10-10T07:42:10Z</time>
      </trkpt>
      <trkpt lat="44.82933" lon="5.07372">
        <ele>914.83</ele>
        <time>2021-10-10T07:42:14Z</time>
      </trkpt>
      <trkpt lat="44.82942" lon="5.07375">
        <ele>911.95</ele>
        <time>2021-10-10T07:42:22Z</time>
      </trkpt>
      <trkpt lat="44.82953" lon="5.07376">
        <ele>909.54</ele>
        <time>2021-10-10T07:42:31Z</time>
      </trkpt>
      <trkpt lat="44.82958" lon="5.07376">
        <ele>908.58</ele>
        <time>2021-10-10T07:42:36Z</time>
      </trkpt>
      <trkpt lat="44.82963" lon="5.07376">
        <ele>908.1</ele>
        <time>2021-10-10T07:42:40Z</time>
      </trkpt>
      <trkpt lat="44.82967" lon="5.07376">
        <ele>907.14</ele>
        <time>2021-10-10T07:42:44Z</time>
      </trkpt>
      <trkpt lat="44.82969" lon="5.07376">
        <ele>906.66</ele>
        <time>2021-10-10T07:42:46Z</time>
      </trkpt>
      <trkpt lat="44.82974" lon="5.07376">
        <ele>906.18</ele>
        <time>2021-10-10T07:42:51Z</time>
      </trkpt>
      <trkpt lat="44.82982" lon="5.07377">
        <ele>903.78</ele>
        <time>2021-10-10T07:42:59Z</time>
      </trkpt>
      <trkpt lat="44.82984" lon="5.07377">
        <ele>902.33</ele>
        <time>2021-10-10T07:43:01Z</time>
      </trkpt>
      <trkpt lat="44.82987" lon="5.07377">
        <ele>901.37</ele>
        <time>2021-10-10T07:43:04Z</time>
      </trkpt>
      <trkpt lat="44.8299" lon="5.07375">
        <ele>899.93</ele>
        <time>2021-10-10T07:43:07Z</time>
      </trkpt>
      <trkpt lat="44.82993" lon="5.07374">
        <ele>899.45</ele>
        <time>2021-10-10T07:43:10Z</time>
      </trkpt>
      <trkpt lat="44.82998" lon="5.07375">
        <ele>898.01</ele>
        <time>2021-10-10T07:43:16Z</time>
      </trkpt>
      <trkpt lat="44.83001" lon="5.07373">
        <ele>897.53</ele>
        <time>2021-10-10T07:43:20Z</time>
      </trkpt>
      <trkpt lat="44.83006" lon="5.07372">
        <ele>895.61</ele>
        <time>2021-10-10T07:43:25Z</time>
      </trkpt>
      <trkpt lat="44.83013" lon="5.07371">
        <ele>892.72</ele>
        <time>2021-10-10T07:43:34Z</time>
      </trkpt>
      <trkpt lat="44.83022" lon="5.07368">
        <ele>890.32</ele>
        <time>2021-10-10T07:43:46Z</time>
      </trkpt>
      <trkpt lat="44.83028" lon="5.07366">
        <ele>888.4</ele>
        <time>2021-10-10T07:43:52Z</time>
      </trkpt>
      <trkpt lat="44.83038" lon="5.07365">
        <ele>885.51</ele>
        <time>2021-10-10T07:44:03Z</time>
      </trkpt>
      <trkpt lat="44.83048" lon="5.07367">
        <ele>883.59</ele>
        <time>2021-10-10T07:44:16Z</time>
      </trkpt>
      <trkpt lat="44.83049" lon="5.07367">
        <ele>883.59</ele>
        <time>2021-10-10T07:44:17Z</time>
      </trkpt>
      <trkpt lat="44.83055" lon="5.07366">
        <ele>881.67</ele>
        <time>2021-10-10T07:44:24Z</time>
      </trkpt>
      <trkpt lat="44.83065" lon="5.07364">
        <ele>878.78</ele>
        <time>2021-10-10T07:44:37Z</time>
      </trkpt>
      <trkpt lat="44.83075" lon="5.07361">
        <ele>876.38</ele>
        <time>2021-10-10T07:44:49Z</time>
      </trkpt>
      <trkpt lat="44.83076" lon="5.07361">
        <ele>875.9</ele>
        <time>2021-10-10T07:44:51Z</time>
      </trkpt>
      <trkpt lat="44.83084" lon="5.07358">
        <ele>873.98</ele>
        <time>2021-10-10T07:44:58Z</time>
      </trkpt>
      <trkpt lat="44.83088" lon="5.07356">
        <ele>873.01</ele>
        <time>2021-10-10T07:45:01Z</time>
      </trkpt>
      <trkpt lat="44.83099" lon="5.07353">
        <ele>871.09</ele>
        <time>2021-10-10T07:45:11Z</time>
      </trkpt>
      <trkpt lat="44.83113" lon="5.07352">
        <ele>867.73</ele>
        <time>2021-10-10T07:45:24Z</time>
      </trkpt>
      <trkpt lat="44.83115" lon="5.07351">
        <ele>867.25</ele>
        <time>2021-10-10T07:45:26Z</time>
      </trkpt>
      <trkpt lat="44.8312" lon="5.0735">
        <ele>865.8</ele>
        <time>2021-10-10T07:45:30Z</time>
      </trkpt>
      <trkpt lat="44.83121" lon="5.07349">
        <ele>866.29</ele>
        <time>2021-10-10T07:45:31Z</time>
      </trkpt>
      <trkpt lat="44.83127" lon="5.07347">
        <ele>864.84</ele>
        <time>2021-10-10T07:45:38Z</time>
      </trkpt>
      <trkpt lat="44.83133" lon="5.07347">
        <ele>864.36</ele>
        <time>2021-10-10T07:45:44Z</time>
      </trkpt>
      <trkpt lat="44.83138" lon="5.07347">
        <ele>863.88</ele>
        <time>2021-10-10T07:45:49Z</time>
      </trkpt>
      <trkpt lat="44.8314" lon="5.07348">
        <ele>863.4</ele>
        <time>2021-10-10T07:45:51Z</time>
      </trkpt>
      <trkpt lat="44.83152" lon="5.0735">
        <ele>862.44</ele>
        <time>2021-10-10T07:46:01Z</time>
      </trkpt>
      <trkpt lat="44.83162" lon="5.07344">
        <ele>861.48</ele>
        <time>2021-10-10T07:46:15Z</time>
      </trkpt>
      <trkpt lat="44.83156" lon="5.07341">
        <ele>859.56</ele>
        <time>2021-10-10T07:46:33Z</time>
      </trkpt>
      <trkpt lat="44.8315" lon="5.07334">
        <ele>856.19</ele>
        <time>2021-10-10T07:46:49Z</time>
      </trkpt>
      <trkpt lat="44.83141" lon="5.07329">
        <ele>853.31</ele>
        <time>2021-10-10T07:47:03Z</time>
      </trkpt>
      <trkpt lat="44.83131" lon="5.07326">
        <ele>851.38</ele>
        <time>2021-10-10T07:47:19Z</time>
      </trkpt>
      <trkpt lat="44.8312" lon="5.07321">
        <ele>848.5</ele>
        <time>2021-10-10T07:47:32Z</time>
      </trkpt>
      <trkpt lat="44.83119" lon="5.0732">
        <ele>847.54</ele>
        <time>2021-10-10T07:47:34Z</time>
      </trkpt>
      <trkpt lat="44.83113" lon="5.07318">
        <ele>845.14</ele>
        <time>2021-10-10T07:47:46Z</time>
      </trkpt>
      <trkpt lat="44.83101" lon="5.07312">
        <ele>842.73</ele>
        <time>2021-10-10T07:48:01Z</time>
      </trkpt>
      <trkpt lat="44.83076" lon="5.07301">
        <ele>840.33</ele>
        <time>2021-10-10T07:48:19Z</time>
      </trkpt>
      <trkpt lat="44.83067" lon="5.07292">
        <ele>836.96</ele>
        <time>2021-10-10T07:48:30Z</time>
      </trkpt>
      <trkpt lat="44.83062" lon="5.07289">
        <ele>834.08</ele>
        <time>2021-10-10T07:48:47Z</time>
      </trkpt>
      <trkpt lat="44.83054" lon="5.07285">
        <ele>833.6</ele>
        <time>2021-10-10T07:49:02Z</time>
      </trkpt>
      <trkpt lat="44.83042" lon="5.07276">
        <ele>830.24</ele>
        <time>2021-10-10T07:49:14Z</time>
      </trkpt>
      <trkpt lat="44.8303" lon="5.07268">
        <ele>827.35</ele>
        <time>2021-10-10T07:49:28Z</time>
      </trkpt>
      <trkpt lat="44.83036" lon="5.0726">
        <ele>824.47</ele>
        <time>2021-10-10T07:49:40Z</time>
      </trkpt>
      <trkpt lat="44.83029" lon="5.07253">
        <ele>822.06</ele>
        <time>2021-10-10T07:49:54Z</time>
      </trkpt>
      <trkpt lat="44.83023" lon="5.07249">
        <ele>819.18</ele>
        <time>2021-10-10T07:50:08Z</time>
      </trkpt>
      <trkpt lat="44.8302" lon="5.07246">
        <ele>815.82</ele>
        <time>2021-10-10T07:50:19Z</time>
      </trkpt>
      <trkpt lat="44.83013" lon="5.07239">
        <ele>812.45</ele>
        <time>2021-10-10T07:50:30Z</time>
      </trkpt>
      <trkpt lat="44.83001" lon="5.07229">
        <ele>809.57</ele>
        <time>2021-10-10T07:50:44Z</time>
      </trkpt>
      <trkpt lat="44.82997" lon="5.07226">
        <ele>807.64</ele>
        <time>2021-10-10T07:51:00Z</time>
      </trkpt>
      <trkpt lat="44.82985" lon="5.07214">
        <ele>804.76</ele>
        <time>2021-10-10T07:51:15Z</time>
      </trkpt>
      <trkpt lat="44.82986" lon="5.07213">
        <ele>802.84</ele>
        <time>2021-10-10T07:51:33Z</time>
      </trkpt>
      <trkpt lat="44.82995" lon="5.07205">
        <ele>799.47</ele>
        <time>2021-10-10T07:51:45Z</time>
      </trkpt>
      <trkpt lat="44.82999" lon="5.07205">
        <ele>797.55</ele>
        <time>2021-10-10T07:51:58Z</time>
      </trkpt>
      <trkpt lat="44.83009" lon="5.07205">
        <ele>795.15</ele>
        <time>2021-10-10T07:52:12Z</time>
      </trkpt>
      <trkpt lat="44.83013" lon="5.07207">
        <ele>793.22</ele>
        <time>2021-10-10T07:52:24Z</time>
      </trkpt>
      <trkpt lat="44.83013" lon="5.07197">
        <ele>790.82</ele>
        <time>2021-10-10T07:52:37Z</time>
      </trkpt>
      <trkpt lat="44.83004" lon="5.0719">
        <ele>787.94</ele>
        <time>2021-10-10T07:52:52Z</time>
      </trkpt>
      <trkpt lat="44.82999" lon="5.07185">
        <ele>787.46</ele>
        <time>2021-10-10T07:52:57Z</time>
      </trkpt>
      <trkpt lat="44.82995" lon="5.07181">
        <ele>786.5</ele>
        <time>2021-10-10T07:53:00Z</time>
      </trkpt>
      <trkpt lat="44.8298" lon="5.07171">
        <ele>785.05</ele>
        <time>2021-10-10T07:53:14Z</time>
      </trkpt>
      <trkpt lat="44.82973" lon="5.07166">
        <ele>782.17</ele>
        <time>2021-10-10T07:53:29Z</time>
      </trkpt>
      <trkpt lat="44.82967" lon="5.0716">
        <ele>781.69</ele>
        <time>2021-10-10T07:53:46Z</time>
      </trkpt>
      <trkpt lat="44.82954" lon="5.07152">
        <ele>780.25</ele>
        <time>2021-10-10T07:53:58Z</time>
      </trkpt>
      <trkpt lat="44.82945" lon="5.07144">
        <ele>777.84</ele>
        <time>2021-10-10T07:54:13Z</time>
      </trkpt>
      <trkpt lat="44.8294" lon="5.07135">
        <ele>775.92</ele>
        <time>2021-10-10T07:54:21Z</time>
      </trkpt>
      <trkpt lat="44.82929" lon="5.07122">
        <ele>772.08</ele>
        <time>2021-10-10T07:54:35Z</time>
      </trkpt>
      <trkpt lat="44.82924" lon="5.07116">
        <ele>769.19</ele>
        <time>2021-10-10T07:54:46Z</time>
      </trkpt>
      <trkpt lat="44.82917" lon="5.07103">
        <ele>765.35</ele>
        <time>2021-10-10T07:54:57Z</time>
      </trkpt>
      <trkpt lat="44.82913" lon="5.071">
        <ele>762.46</ele>
        <time>2021-10-10T07:55:06Z</time>
      </trkpt>
      <trkpt lat="44.82911" lon="5.07099">
        <ele>761.98</ele>
        <time>2021-10-10T07:55:08Z</time>
      </trkpt>
      <trkpt lat="44.82902" lon="5.0709">
        <ele>759.58</ele>
        <time>2021-10-10T07:55:21Z</time>
      </trkpt>
      <trkpt lat="44.82892" lon="5.07079">
        <ele>756.69</ele>
        <time>2021-10-10T07:55:34Z</time>
      </trkpt>
      <trkpt lat="44.82888" lon="5.07075">
        <ele>752.85</ele>
        <time>2021-10-10T07:55:47Z</time>
      </trkpt>
      <trkpt lat="44.82878" lon="5.07064">
        <ele>749.97</ele>
        <time>2021-10-10T07:56:00Z</time>
      </trkpt>
      <trkpt lat="44.82872" lon="5.07056">
        <ele>746.6</ele>
        <time>2021-10-10T07:56:12Z</time>
      </trkpt>
      <trkpt lat="44.82867" lon="5.0705">
        <ele>743.72</ele>
        <time>2021-10-10T07:56:25Z</time>
      </trkpt>
      <trkpt lat="44.82859" lon="5.07043">
        <ele>740.83</ele>
        <time>2021-10-10T07:56:36Z</time>
      </trkpt>
      <trkpt lat="44.82843" lon="5.07025">
        <ele>737.95</ele>
        <time>2021-10-10T07:56:51Z</time>
      </trkpt>
      <trkpt lat="44.82837" lon="5.07019">
        <ele>734.1</ele>
        <time>2021-10-10T07:57:03Z</time>
      </trkpt>
      <trkpt lat="44.82829" lon="5.0701">
        <ele>731.22</ele>
        <time>2021-10-10T07:57:16Z</time>
      </trkpt>
      <trkpt lat="44.82823" lon="5.07007">
        <ele>728.82</ele>
        <time>2021-10-10T07:57:31Z</time>
      </trkpt>
      <trkpt lat="44.82817" lon="5.07004">
        <ele>725.45</ele>
        <time>2021-10-10T07:57:45Z</time>
      </trkpt>
      <trkpt lat="44.82803" lon="5.06993">
        <ele>722.57</ele>
        <time>2021-10-10T07:57:57Z</time>
      </trkpt>
      <trkpt lat="44.82796" lon="5.06988">
        <ele>719.68</ele>
        <time>2021-10-10T07:58:09Z</time>
      </trkpt>
      <trkpt lat="44.82789" lon="5.06985">
        <ele>716.32</ele>
        <time>2021-10-10T07:58:22Z</time>
      </trkpt>
      <trkpt lat="44.8278" lon="5.0698">
        <ele>713.44</ele>
        <time>2021-10-10T07:58:34Z</time>
      </trkpt>
      <trkpt lat="44.82771" lon="5.06972">
        <ele>710.07</ele>
        <time>2021-10-10T07:58:46Z</time>
      </trkpt>
      <trkpt lat="44.82765" lon="5.06967">
        <ele>707.19</ele>
        <time>2021-10-10T07:58:59Z</time>
      </trkpt>
      <trkpt lat="44.82754" lon="5.06961">
        <ele>704.3</ele>
        <time>2021-10-10T07:59:10Z</time>
      </trkpt>
      <trkpt lat="44.82741" lon="5.06953">
        <ele>701.42</ele>
        <time>2021-10-10T07:59:22Z</time>
      </trkpt>
      <trkpt lat="44.82736" lon="5.0695">
        <ele>699.02</ele>
        <time>2021-10-10T07:59:30Z</time>
      </trkpt>
      <trkpt lat="44.82727" lon="5.06942">
        <ele>695.65</ele>
        <time>2021-10-10T07:59:41Z</time>
      </trkpt>
      <trkpt lat="44.82719" lon="5.06935">
        <ele>692.77</ele>
        <time>2021-10-10T07:59:53Z</time>
      </trkpt>
      <trkpt lat="44.82707" lon="5.06921">
        <ele>688.92</ele>
        <time>2021-10-10T08:00:05Z</time>
      </trkpt>
      <trkpt lat="44.82696" lon="5.06908">
        <ele>687</ele>
        <time>2021-10-10T08:00:17Z</time>
      </trkpt>
      <trkpt lat="44.8269" lon="5.06902">
        <ele>684.6</ele>
        <time>2021-10-10T08:00:27Z</time>
      </trkpt>
      <trkpt lat="44.82679" lon="5.06886">
        <ele>681.23</ele>
        <time>2021-10-10T08:00:40Z</time>
      </trkpt>
      <trkpt lat="44.82672" lon="5.06878">
        <ele>677.87</ele>
        <time>2021-10-10T08:00:52Z</time>
      </trkpt>
      <trkpt lat="44.82667" lon="5.06871">
        <ele>674.98</ele>
        <time>2021-10-10T08:01:04Z</time>
      </trkpt>
      <trkpt lat="44.82659" lon="5.06862">
        <ele>672.1</ele>
        <time>2021-10-10T08:01:13Z</time>
      </trkpt>
      <trkpt lat="44.82651" lon="5.06849">
        <ele>668.73</ele>
        <time>2021-10-10T08:01:26Z</time>
      </trkpt>
      <trkpt lat="44.82648" lon="5.06841">
        <ele>665.85</ele>
        <time>2021-10-10T08:01:38Z</time>
      </trkpt>
      <trkpt lat="44.82644" lon="5.06825">
        <ele>662.49</ele>
        <time>2021-10-10T08:01:51Z</time>
      </trkpt>
      <trkpt lat="44.8264" lon="5.0681">
        <ele>659.12</ele>
        <time>2021-10-10T08:02:02Z</time>
      </trkpt>
      <trkpt lat="44.8264" lon="5.06806">
        <ele>658.16</ele>
        <time>2021-10-10T08:02:06Z</time>
      </trkpt>
      <trkpt lat="44.82639" lon="5.06787">
        <ele>655.76</ele>
        <time>2021-10-10T08:02:17Z</time>
      </trkpt>
      <trkpt lat="44.82641" lon="5.06779">
        <ele>654.31</ele>
        <time>2021-10-10T08:02:26Z</time>
      </trkpt>
      <trkpt lat="44.82643" lon="5.06773">
        <ele>652.87</ele>
        <time>2021-10-10T08:02:47Z</time>
      </trkpt>
      <trkpt lat="44.82641" lon="5.06768">
        <ele>652.87</ele>
        <time>2021-10-10T08:03:03Z</time>
      </trkpt>
      <trkpt lat="44.82641" lon="5.06768">
        <ele>648.55</ele>
        <time>2021-10-10T08:03:22Z</time>
      </trkpt>
      <trkpt lat="44.82641" lon="5.06768">
        <ele>649.99</ele>
        <time>2021-10-10T08:03:23Z</time>
      </trkpt>
      <trkpt lat="44.82641" lon="5.06768">
        <ele>658.16</ele>
        <time>2021-10-10T08:03:24Z</time>
      </trkpt>
      <trkpt lat="44.82641" lon="5.06768">
        <ele>652.87</ele>
        <time>2021-10-10T08:03:25Z</time>
      </trkpt>
      <trkpt lat="44.82641" lon="5.06768">
        <ele>649.51</ele>
        <time>2021-10-10T08:03:27Z</time>
      </trkpt>
      <trkpt lat="44.82641" lon="5.06768">
        <ele>653.35</ele>
        <time>2021-10-10T08:03:28Z</time>
      </trkpt>
      <trkpt lat="44.82641" lon="5.06768">
        <ele>654.8</ele>
        <time>2021-10-10T08:03:30Z</time>
      </trkpt>
      <trkpt lat="44.82641" lon="5.06768">
        <ele>650.47</ele>
        <time>2021-10-10T08:03:31Z</time>
      </trkpt>
      <trkpt lat="44.82641" lon="5.06768">
        <ele>655.28</ele>
        <time>2021-10-10T08:03:32Z</time>
      </trkpt>
      <trkpt lat="44.82641" lon="5.06768">
        <ele>651.43</ele>
        <time>2021-10-10T08:03:33Z</time>
      </trkpt>
      <trkpt lat="44.82641" lon="5.06756">
        <ele>650.95</ele>
        <time>2021-10-10T08:03:49Z</time>
      </trkpt>
      <trkpt lat="44.82642" lon="5.06752">
        <ele>650.47</ele>
        <time>2021-10-10T08:03:51Z</time>
      </trkpt>
      <trkpt lat="44.82643" lon="5.06735">
        <ele>647.59</ele>
        <time>2021-10-10T08:04:02Z</time>
      </trkpt>
      <trkpt lat="44.82643" lon="5.06732">
        <ele>647.1</ele>
        <time>2021-10-10T08:04:04Z</time>
      </trkpt>
      <trkpt lat="44.82647" lon="5.06721">
        <ele>644.22</ele>
        <time>2021-10-10T08:04:16Z</time>
      </trkpt>
      <trkpt lat="44.8265" lon="5.06715">
        <ele>642.78</ele>
        <time>2021-10-10T08:04:22Z</time>
      </trkpt>
      <trkpt lat="44.82652" lon="5.06702">
        <ele>640.38</ele>
        <time>2021-10-10T08:04:33Z</time>
      </trkpt>
      <trkpt lat="44.82655" lon="5.06696">
        <ele>637.49</ele>
        <time>2021-10-10T08:04:45Z</time>
      </trkpt>
      <trkpt lat="44.82659" lon="5.06687">
        <ele>634.13</ele>
        <time>2021-10-10T08:04:55Z</time>
      </trkpt>
      <trkpt lat="44.82663" lon="5.06675">
        <ele>631.72</ele>
        <time>2021-10-10T08:05:05Z</time>
      </trkpt>
      <trkpt lat="44.82665" lon="5.06665">
        <ele>628.36</ele>
        <time>2021-10-10T08:05:16Z</time>
      </trkpt>
      <trkpt lat="44.82663" lon="5.06651">
        <ele>624.99</ele>
        <time>2021-10-10T08:05:27Z</time>
      </trkpt>
      <trkpt lat="44.82659" lon="5.06638">
        <ele>622.59</ele>
        <time>2021-10-10T08:05:38Z</time>
      </trkpt>
      <trkpt lat="44.82659" lon="5.06624">
        <ele>619.71</ele>
        <time>2021-10-10T08:05:49Z</time>
      </trkpt>
      <trkpt lat="44.82661" lon="5.06621">
        <ele>617.78</ele>
        <time>2021-10-10T08:05:55Z</time>
      </trkpt>
      <trkpt lat="44.82665" lon="5.06608">
        <ele>614.42</ele>
        <time>2021-10-10T08:06:07Z</time>
      </trkpt>
      <trkpt lat="44.82668" lon="5.066">
        <ele>612.02</ele>
        <time>2021-10-10T08:06:17Z</time>
      </trkpt>
      <trkpt lat="44.82668" lon="5.06583">
        <ele>609.61</ele>
        <time>2021-10-10T08:06:29Z</time>
      </trkpt>
      <trkpt lat="44.82668" lon="5.0657">
        <ele>606.25</ele>
        <time>2021-10-10T08:06:41Z</time>
      </trkpt>
      <trkpt lat="44.82666" lon="5.06554">
        <ele>603.36</ele>
        <time>2021-10-10T08:06:53Z</time>
      </trkpt>
      <trkpt lat="44.82665" lon="5.06549">
        <ele>601.44</ele>
        <time>2021-10-10T08:07:01Z</time>
      </trkpt>
      <trkpt lat="44.82664" lon="5.06529">
        <ele>598.08</ele>
        <time>2021-10-10T08:07:15Z</time>
      </trkpt>
      <trkpt lat="44.82667" lon="5.06519">
        <ele>595.19</ele>
        <time>2021-10-10T08:07:25Z</time>
      </trkpt>
      <trkpt lat="44.82666" lon="5.06511">
        <ele>593.27</ele>
        <time>2021-10-10T08:07:38Z</time>
      </trkpt>
      <trkpt lat="44.82663" lon="5.06493">
        <ele>589.91</ele>
        <time>2021-10-10T08:07:53Z</time>
      </trkpt>
      <trkpt lat="44.82661" lon="5.06479">
        <ele>586.54</ele>
        <time>2021-10-10T08:08:05Z</time>
      </trkpt>
      <trkpt lat="44.82658" lon="5.06464">
        <ele>583.66</ele>
        <time>2021-10-10T08:08:17Z</time>
      </trkpt>
      <trkpt lat="44.82656" lon="5.06457">
        <ele>581.73</ele>
        <time>2021-10-10T08:08:31Z</time>
      </trkpt>
      <trkpt lat="44.82654" lon="5.06455">
        <ele>581.25</ele>
        <time>2021-10-10T08:08:48Z</time>
      </trkpt>
      <trkpt lat="44.82652" lon="5.0644">
        <ele>578.37</ele>
        <time>2021-10-10T08:09:06Z</time>
      </trkpt>
      <trkpt lat="44.82651" lon="5.06427">
        <ele>576.45</ele>
        <time>2021-10-10T08:09:18Z</time>
      </trkpt>
      <trkpt lat="44.82649" lon="5.06412">
        <ele>575.01</ele>
        <time>2021-10-10T08:09:27Z</time>
      </trkpt>
      <trkpt lat="44.82649" lon="5.06395">
        <ele>573.08</ele>
        <time>2021-10-10T08:09:38Z</time>
      </trkpt>
      <trkpt lat="44.8265" lon="5.06394">
        <ele>572.6</ele>
        <time>2021-10-10T08:10:01Z</time>
      </trkpt>
      <trkpt lat="44.82649" lon="5.06372">
        <ele>569.72</ele>
        <time>2021-10-10T08:10:15Z</time>
      </trkpt>
      <trkpt lat="44.8265" lon="5.06356">
        <ele>567.32</ele>
        <time>2021-10-10T08:10:28Z</time>
      </trkpt>
      <trkpt lat="44.82654" lon="5.06345">
        <ele>565.87</ele>
        <time>2021-10-10T08:10:39Z</time>
      </trkpt>
      <trkpt lat="44.82657" lon="5.06334">
        <ele>564.91</ele>
        <time>2021-10-10T08:10:48Z</time>
      </trkpt>
      <trkpt lat="44.82659" lon="5.06328">
        <ele>563.95</ele>
        <time>2021-10-10T08:10:52Z</time>
      </trkpt>
      <trkpt lat="44.82661" lon="5.06311">
        <ele>561.55</ele>
        <time>2021-10-10T08:11:03Z</time>
      </trkpt>
      <trkpt lat="44.82662" lon="5.06304">
        <ele>558.66</ele>
        <time>2021-10-10T08:11:15Z</time>
      </trkpt>
      <trkpt lat="44.82662" lon="5.06303">
        <ele>558.66</ele>
        <time>2021-10-10T08:11:16Z</time>
      </trkpt>
      <trkpt lat="44.82661" lon="5.06283">
        <ele>554.82</ele>
        <time>2021-10-10T08:11:29Z</time>
      </trkpt>
      <trkpt lat="44.82661" lon="5.06282">
        <ele>554.34</ele>
        <time>2021-10-10T08:11:31Z</time>
      </trkpt>
      <trkpt lat="44.82663" lon="5.06268">
        <ele>551.45</ele>
        <time>2021-10-10T08:11:43Z</time>
      </trkpt>
      <trkpt lat="44.82667" lon="5.06258">
        <ele>548.57</ele>
        <time>2021-10-10T08:11:54Z</time>
      </trkpt>
      <trkpt lat="44.82669" lon="5.06254">
        <ele>547.61</ele>
        <time>2021-10-10T08:11:59Z</time>
      </trkpt>
      <trkpt lat="44.82669" lon="5.06247">
        <ele>546.65</ele>
        <time>2021-10-10T08:12:04Z</time>
      </trkpt>
      <trkpt lat="44.82674" lon="5.06233">
        <ele>543.76</ele>
        <time>2021-10-10T08:12:17Z</time>
      </trkpt>
      <trkpt lat="44.82677" lon="5.06219">
        <ele>541.36</ele>
        <time>2021-10-10T08:12:29Z</time>
      </trkpt>
      <trkpt lat="44.82678" lon="5.06205">
        <ele>539.92</ele>
        <time>2021-10-10T08:12:39Z</time>
      </trkpt>
      <trkpt lat="44.82677" lon="5.06183">
        <ele>538.48</ele>
        <time>2021-10-10T08:12:51Z</time>
      </trkpt>
      <trkpt lat="44.82678" lon="5.06169">
        <ele>537.51</ele>
        <time>2021-10-10T08:13:03Z</time>
      </trkpt>
      <trkpt lat="44.82678" lon="5.06167">
        <ele>537.51</ele>
        <time>2021-10-10T08:13:04Z</time>
      </trkpt>
      <trkpt lat="44.8268" lon="5.06148">
        <ele>536.55</ele>
        <time>2021-10-10T08:13:13Z</time>
      </trkpt>
      <trkpt lat="44.82684" lon="5.06124">
        <ele>535.11</ele>
        <time>2021-10-10T08:13:26Z</time>
      </trkpt>
      <trkpt lat="44.82686" lon="5.0611">
        <ele>533.67</ele>
        <time>2021-10-10T08:13:34Z</time>
      </trkpt>
      <trkpt lat="44.82689" lon="5.06099">
        <ele>531.27</ele>
        <time>2021-10-10T08:13:44Z</time>
      </trkpt>
      <trkpt lat="44.82697" lon="5.06082">
        <ele>529.34</ele>
        <time>2021-10-10T08:13:56Z</time>
      </trkpt>
      <trkpt lat="44.827" lon="5.06064">
        <ele>527.9</ele>
        <time>2021-10-10T08:14:09Z</time>
      </trkpt>
      <trkpt lat="44.82702" lon="5.06042">
        <ele>525.98</ele>
        <time>2021-10-10T08:14:23Z</time>
      </trkpt>
      <trkpt lat="44.82703" lon="5.06031">
        <ele>525.5</ele>
        <time>2021-10-10T08:14:28Z</time>
      </trkpt>
      <trkpt lat="44.827" lon="5.06009">
        <ele>524.06</ele>
        <time>2021-10-10T08:14:40Z</time>
      </trkpt>
      <trkpt lat="44.82693" lon="5.05995">
        <ele>522.61</ele>
        <time>2021-10-10T08:14:51Z</time>
      </trkpt>
      <trkpt lat="44.82688" lon="5.05987">
        <ele>521.65</ele>
        <time>2021-10-10T08:14:57Z</time>
      </trkpt>
      <trkpt lat="44.82684" lon="5.05978">
        <ele>519.73</ele>
        <time>2021-10-10T08:15:09Z</time>
      </trkpt>
      <trkpt lat="44.82679" lon="5.05966">
        <ele>516.37</ele>
        <time>2021-10-10T08:15:20Z</time>
      </trkpt>
      <trkpt lat="44.82674" lon="5.05957">
        <ele>514.92</ele>
        <time>2021-10-10T08:15:30Z</time>
      </trkpt>
      <trkpt lat="44.8267" lon="5.05937">
        <ele>512.52</ele>
        <time>2021-10-10T08:15:44Z</time>
      </trkpt>
      <trkpt lat="44.82669" lon="5.05927">
        <ele>511.08</ele>
        <time>2021-10-10T08:15:51Z</time>
      </trkpt>
      <trkpt lat="44.82673" lon="5.05909">
        <ele>508.19</ele>
        <time>2021-10-10T08:16:03Z</time>
      </trkpt>
      <trkpt lat="44.82674" lon="5.05902">
        <ele>506.75</ele>
        <time>2021-10-10T08:16:11Z</time>
      </trkpt>
      <trkpt lat="44.82674" lon="5.05894">
        <ele>505.31</ele>
        <time>2021-10-10T08:16:21Z</time>
      </trkpt>
      <trkpt lat="44.82675" lon="5.05888">
        <ele>503.87</ele>
        <time>2021-10-10T08:16:28Z</time>
      </trkpt>
      <trkpt lat="44.82677" lon="5.05868">
        <ele>500.98</ele>
        <time>2021-10-10T08:16:42Z</time>
      </trkpt>
      <trkpt lat="44.82682" lon="5.05857">
        <ele>498.1</ele>
        <time>2021-10-10T08:16:54Z</time>
      </trkpt>
      <trkpt lat="44.82685" lon="5.05845">
        <ele>495.22</ele>
        <time>2021-10-10T08:17:07Z</time>
      </trkpt>
      <trkpt lat="44.82685" lon="5.05834">
        <ele>493.29</ele>
        <time>2021-10-10T08:17:15Z</time>
      </trkpt>
      <trkpt lat="44.82686" lon="5.05824">
        <ele>490.41</ele>
        <time>2021-10-10T08:17:27Z</time>
      </trkpt>
      <trkpt lat="44.82686" lon="5.05813">
        <ele>488.49</ele>
        <time>2021-10-10T08:17:38Z</time>
      </trkpt>
      <trkpt lat="44.82687" lon="5.058">
        <ele>486.56</ele>
        <time>2021-10-10T08:17:52Z</time>
      </trkpt>
      <trkpt lat="44.82687" lon="5.058">
        <ele>486.56</ele>
        <time>2021-10-10T08:18:25Z</time>
      </trkpt>
      <trkpt lat="44.82687" lon="5.05801">
        <ele>486.56</ele>
        <time>2021-10-10T08:18:59Z</time>
      </trkpt>
      <trkpt lat="44.82687" lon="5.05801">
        <ele>486.56</ele>
        <time>2021-10-10T08:19:39Z</time>
      </trkpt>
      <trkpt lat="44.82687" lon="5.05792">
        <ele>485.6</ele>
        <time>2021-10-10T08:19:55Z</time>
      </trkpt>
      <trkpt lat="44.82686" lon="5.05785">
        <ele>484.16</ele>
        <time>2021-10-10T08:20:16Z</time>
      </trkpt>
      <trkpt lat="44.82689" lon="5.05761">
        <ele>480.8</ele>
        <time>2021-10-10T08:20:31Z</time>
      </trkpt>
      <trkpt lat="44.82689" lon="5.05749">
        <ele>478.87</ele>
        <time>2021-10-10T08:20:44Z</time>
      </trkpt>
      <trkpt lat="44.82688" lon="5.05731">
        <ele>476.95</ele>
        <time>2021-10-10T08:20:55Z</time>
      </trkpt>
      <trkpt lat="44.82688" lon="5.05715">
        <ele>474.55</ele>
        <time>2021-10-10T08:21:07Z</time>
      </trkpt>
      <trkpt lat="44.8269" lon="5.0571">
        <ele>474.07</ele>
        <time>2021-10-10T08:21:10Z</time>
      </trkpt>
      <trkpt lat="44.82689" lon="5.05689">
        <ele>471.66</ele>
        <time>2021-10-10T08:21:22Z</time>
      </trkpt>
      <trkpt lat="44.82684" lon="5.05669">
        <ele>469.26</ele>
        <time>2021-10-10T08:21:34Z</time>
      </trkpt>
      <trkpt lat="44.82681" lon="5.05645">
        <ele>467.82</ele>
        <time>2021-10-10T08:21:46Z</time>
      </trkpt>
      <trkpt lat="44.82681" lon="5.05625">
        <ele>465.42</ele>
        <time>2021-10-10T08:21:58Z</time>
      </trkpt>
      <trkpt lat="44.82683" lon="5.05617">
        <ele>463.97</ele>
        <time>2021-10-10T08:22:03Z</time>
      </trkpt>
      <trkpt lat="44.82683" lon="5.05612">
        <ele>463.49</ele>
        <time>2021-10-10T08:22:06Z</time>
      </trkpt>
      <trkpt lat="44.8268" lon="5.05599">
        <ele>460.13</ele>
        <time>2021-10-10T08:22:17Z</time>
      </trkpt>
      <trkpt lat="44.82673" lon="5.05588">
        <ele>457.24</ele>
        <time>2021-10-10T08:22:30Z</time>
      </trkpt>
      <trkpt lat="44.82665" lon="5.05576">
        <ele>454.36</ele>
        <time>2021-10-10T08:22:42Z</time>
      </trkpt>
      <trkpt lat="44.82655" lon="5.05565">
        <ele>451</ele>
        <time>2021-10-10T08:22:55Z</time>
      </trkpt>
      <trkpt lat="44.8264" lon="5.0556">
        <ele>449.07</ele>
        <time>2021-10-10T08:23:08Z</time>
      </trkpt>
      <trkpt lat="44.82638" lon="5.05556">
        <ele>447.63</ele>
        <time>2021-10-10T08:23:12Z</time>
      </trkpt>
      <trkpt lat="44.82635" lon="5.05549">
        <ele>446.19</ele>
        <time>2021-10-10T08:23:18Z</time>
      </trkpt>
      <trkpt lat="44.82631" lon="5.05546">
        <ele>444.75</ele>
        <time>2021-10-10T08:23:26Z</time>
      </trkpt>
      <trkpt lat="44.82631" lon="5.05541">
        <ele>444.27</ele>
        <time>2021-10-10T08:23:29Z</time>
      </trkpt>
      <trkpt lat="44.82627" lon="5.05527">
        <ele>442.82</ele>
        <time>2021-10-10T08:23:40Z</time>
      </trkpt>
      <trkpt lat="44.82627" lon="5.05525">
        <ele>442.82</ele>
        <time>2021-10-10T08:23:54Z</time>
      </trkpt>
      <trkpt lat="44.82626" lon="5.05514">
        <ele>441.86</ele>
        <time>2021-10-10T08:24:15Z</time>
      </trkpt>
      <trkpt lat="44.8262" lon="5.05495">
        <ele>440.9</ele>
        <time>2021-10-10T08:24:28Z</time>
      </trkpt>
      <trkpt lat="44.82612" lon="5.0549">
        <ele>439.94</ele>
        <time>2021-10-10T08:24:35Z</time>
      </trkpt>
      <trkpt lat="44.82607" lon="5.05482">
        <ele>438.5</ele>
        <time>2021-10-10T08:24:39Z</time>
      </trkpt>
      <trkpt lat="44.82596" lon="5.05463">
        <ele>435.61</ele>
        <time>2021-10-10T08:24:54Z</time>
      </trkpt>
      <trkpt lat="44.82595" lon="5.05461">
        <ele>436.1</ele>
        <time>2021-10-10T08:24:55Z</time>
      </trkpt>
      <trkpt lat="44.82592" lon="5.05438">
        <ele>434.65</ele>
        <time>2021-10-10T08:25:07Z</time>
      </trkpt>
      <trkpt lat="44.82591" lon="5.05433">
        <ele>433.21</ele>
        <time>2021-10-10T08:25:10Z</time>
      </trkpt>
      <trkpt lat="44.82593" lon="5.05424">
        <ele>432.73</ele>
        <time>2021-10-10T08:25:14Z</time>
      </trkpt>
      <trkpt lat="44.82592" lon="5.05405">
        <ele>430.81</ele>
        <time>2021-10-10T08:25:25Z</time>
      </trkpt>
      <trkpt lat="44.82594" lon="5.05397">
        <ele>429.85</ele>
        <time>2021-10-10T08:25:29Z</time>
      </trkpt>
      <trkpt lat="44.82595" lon="5.05394">
        <ele>428.89</ele>
        <time>2021-10-10T08:25:31Z</time>
      </trkpt>
      <trkpt lat="44.82593" lon="5.05388">
        <ele>427.92</ele>
        <time>2021-10-10T08:25:34Z</time>
      </trkpt>
      <trkpt lat="44.82593" lon="5.05378">
        <ele>426.48</ele>
        <time>2021-10-10T08:25:41Z</time>
      </trkpt>
      <trkpt lat="44.82594" lon="5.05372">
        <ele>425.52</ele>
        <time>2021-10-10T08:25:44Z</time>
      </trkpt>
      <trkpt lat="44.82599" lon="5.05359">
        <ele>423.6</ele>
        <time>2021-10-10T08:25:51Z</time>
      </trkpt>
      <trkpt lat="44.82603" lon="5.05352">
        <ele>422.64</ele>
        <time>2021-10-10T08:25:57Z</time>
      </trkpt>
      <trkpt lat="44.82605" lon="5.05347">
        <ele>421.19</ele>
        <time>2021-10-10T08:26:00Z</time>
      </trkpt>
      <trkpt lat="44.82608" lon="5.05342">
        <ele>420.71</ele>
        <time>2021-10-10T08:26:04Z</time>
      </trkpt>
      <trkpt lat="44.82609" lon="5.0534">
        <ele>420.23</ele>
        <time>2021-10-10T08:26:06Z</time>
      </trkpt>
      <trkpt lat="44.82615" lon="5.05334">
        <ele>418.79</ele>
        <time>2021-10-10T08:26:13Z</time>
      </trkpt>
      <trkpt lat="44.82625" lon="5.05327">
        <ele>417.35</ele>
        <time>2021-10-10T08:26:21Z</time>
      </trkpt>
      <trkpt lat="44.82631" lon="5.05324">
        <ele>416.39</ele>
        <time>2021-10-10T08:26:25Z</time>
      </trkpt>
      <trkpt lat="44.82634" lon="5.05316">
        <ele>415.91</ele>
        <time>2021-10-10T08:26:32Z</time>
      </trkpt>
      <trkpt lat="44.82635" lon="5.0531">
        <ele>415.43</ele>
        <time>2021-10-10T08:26:35Z</time>
      </trkpt>
      <trkpt lat="44.82638" lon="5.05302">
        <ele>414.95</ele>
        <time>2021-10-10T08:26:40Z</time>
      </trkpt>
      <trkpt lat="44.82638" lon="5.05297">
        <ele>413.98</ele>
        <time>2021-10-10T08:26:42Z</time>
      </trkpt>
      <trkpt lat="44.82638" lon="5.05292">
        <ele>414.47</ele>
        <time>2021-10-10T08:26:44Z</time>
      </trkpt>
      <trkpt lat="44.82643" lon="5.05282">
        <ele>413.02</ele>
        <time>2021-10-10T08:26:49Z</time>
      </trkpt>
      <trkpt lat="44.82649" lon="5.05267">
        <ele>413.5</ele>
        <time>2021-10-10T08:27:00Z</time>
      </trkpt>
      <trkpt lat="44.82649" lon="5.05255">
        <ele>413.98</ele>
        <time>2021-10-10T08:27:07Z</time>
      </trkpt>
      <trkpt lat="44.8264" lon="5.05224">
        <ele>412.54</ele>
        <time>2021-10-10T08:27:21Z</time>
      </trkpt>
      <trkpt lat="44.8264" lon="5.05201">
        <ele>412.06</ele>
        <time>2021-10-10T08:27:30Z</time>
      </trkpt>
      <trkpt lat="44.8264" lon="5.0518">
        <ele>411.1</ele>
        <time>2021-10-10T08:27:43Z</time>
      </trkpt>
      <trkpt lat="44.82637" lon="5.05172">
        <ele>411.1</ele>
        <time>2021-10-10T08:27:48Z</time>
      </trkpt>
      <trkpt lat="44.82625" lon="5.05146">
        <ele>411.1</ele>
        <time>2021-10-10T08:28:03Z</time>
      </trkpt>
      <trkpt lat="44.82617" lon="5.05129">
        <ele>412.54</ele>
        <time>2021-10-10T08:28:14Z</time>
      </trkpt>
      <trkpt lat="44.82608" lon="5.0511">
        <ele>412.06</ele>
        <time>2021-10-10T08:28:28Z</time>
      </trkpt>
      <trkpt lat="44.82597" lon="5.05096">
        <ele>413.02</ele>
        <time>2021-10-10T08:28:42Z</time>
      </trkpt>
      <trkpt lat="44.8259" lon="5.05087">
        <ele>412.06</ele>
        <time>2021-10-10T08:28:49Z</time>
      </trkpt>
      <trkpt lat="44.82579" lon="5.05069">
        <ele>411.58</ele>
        <time>2021-10-10T08:29:02Z</time>
      </trkpt>
      <trkpt lat="44.82561" lon="5.0505">
        <ele>410.62</ele>
        <time>2021-10-10T08:29:16Z</time>
      </trkpt>
      <trkpt lat="44.82548" lon="5.05029">
        <ele>409.18</ele>
        <time>2021-10-10T08:29:28Z</time>
      </trkpt>
      <trkpt lat="44.82546" lon="5.05025">
        <ele>408.7</ele>
        <time>2021-10-10T08:29:31Z</time>
      </trkpt>
      <trkpt lat="44.82546" lon="5.05019">
        <ele>407.74</ele>
        <time>2021-10-10T08:29:36Z</time>
      </trkpt>
      <trkpt lat="44.82551" lon="5.05009">
        <ele>406.77</ele>
        <time>2021-10-10T08:29:41Z</time>
      </trkpt>
      <trkpt lat="44.82553" lon="5.05002">
        <ele>405.81</ele>
        <time>2021-10-10T08:29:45Z</time>
      </trkpt>
      <trkpt lat="44.82554" lon="5.04999">
        <ele>405.81</ele>
        <time>2021-10-10T08:29:47Z</time>
      </trkpt>
      <trkpt lat="44.82558" lon="5.04993">
        <ele>404.85</ele>
        <time>2021-10-10T08:29:51Z</time>
      </trkpt>
      <trkpt lat="44.82564" lon="5.04984">
        <ele>401.97</ele>
        <time>2021-10-10T08:30:00Z</time>
      </trkpt>
      <trkpt lat="44.8257" lon="5.04978">
        <ele>401.49</ele>
        <time>2021-10-10T08:30:04Z</time>
      </trkpt>
      <trkpt lat="44.82577" lon="5.04971">
        <ele>399.08</ele>
        <time>2021-10-10T08:30:11Z</time>
      </trkpt>
      <trkpt lat="44.82582" lon="5.04966">
        <ele>398.12</ele>
        <time>2021-10-10T08:30:15Z</time>
      </trkpt>
      <trkpt lat="44.82585" lon="5.04955">
        <ele>395.72</ele>
        <time>2021-10-10T08:30:26Z</time>
      </trkpt>
      <trkpt lat="44.82585" lon="5.04951">
        <ele>396.2</ele>
        <time>2021-10-10T08:30:28Z</time>
      </trkpt>
      <trkpt lat="44.82585" lon="5.0494">
        <ele>395.24</ele>
        <time>2021-10-10T08:30:33Z</time>
      </trkpt>
      <trkpt lat="44.82586" lon="5.04932">
        <ele>394.28</ele>
        <time>2021-10-10T08:30:45Z</time>
      </trkpt>
      <trkpt lat="44.82585" lon="5.04927">
        <ele>393.8</ele>
        <time>2021-10-10T08:30:57Z</time>
      </trkpt>
      <trkpt lat="44.82587" lon="5.04914">
        <ele>393.32</ele>
        <time>2021-10-10T08:31:03Z</time>
      </trkpt>
      <trkpt lat="44.82593" lon="5.04898">
        <ele>391.39</ele>
        <time>2021-10-10T08:31:13Z</time>
      </trkpt>
      <trkpt lat="44.82599" lon="5.04882">
        <ele>389.95</ele>
        <time>2021-10-10T08:31:20Z</time>
      </trkpt>
      <trkpt lat="44.82603" lon="5.04857">
        <ele>388.03</ele>
        <time>2021-10-10T08:31:31Z</time>
      </trkpt>
      <trkpt lat="44.82603" lon="5.04855">
        <ele>388.51</ele>
        <time>2021-10-10T08:31:32Z</time>
      </trkpt>
      <trkpt lat="44.82605" lon="5.04851">
        <ele>388.99</ele>
        <time>2021-10-10T08:31:34Z</time>
      </trkpt>
      <trkpt lat="44.82609" lon="5.04842">
        <ele>388.03</ele>
        <time>2021-10-10T08:31:40Z</time>
      </trkpt>
      <trkpt lat="44.82617" lon="5.04825">
        <ele>387.07</ele>
        <time>2021-10-10T08:31:51Z</time>
      </trkpt>
      <trkpt lat="44.8262" lon="5.04819">
        <ele>386.59</ele>
        <time>2021-10-10T08:31:56Z</time>
      </trkpt>
      <trkpt lat="44.82627" lon="5.04797">
        <ele>385.63</ele>
        <time>2021-10-10T08:32:09Z</time>
      </trkpt>
      <trkpt lat="44.82629" lon="5.04793">
        <ele>385.63</ele>
        <time>2021-10-10T08:32:11Z</time>
      </trkpt>
      <trkpt lat="44.82634" lon="5.04774">
        <ele>385.15</ele>
        <time>2021-10-10T08:32:22Z</time>
      </trkpt>
      <trkpt lat="44.82634" lon="5.04764">
        <ele>385.63</ele>
        <time>2021-10-10T08:32:28Z</time>
      </trkpt>
      <trkpt lat="44.82636" lon="5.04758">
        <ele>385.63</ele>
        <time>2021-10-10T08:32:33Z</time>
      </trkpt>
      <trkpt lat="44.82635" lon="5.04731">
        <ele>387.55</ele>
        <time>2021-10-10T08:32:44Z</time>
      </trkpt>
      <trkpt lat="44.82635" lon="5.04706">
        <ele>388.51</ele>
        <time>2021-10-10T08:32:57Z</time>
      </trkpt>
      <trkpt lat="44.82635" lon="5.0468">
        <ele>389.95</ele>
        <time>2021-10-10T08:33:11Z</time>
      </trkpt>
      <trkpt lat="44.8263" lon="5.04655">
        <ele>392.36</ele>
        <time>2021-10-10T08:33:24Z</time>
      </trkpt>
      <trkpt lat="44.82627" lon="5.04647">
        <ele>392.84</ele>
        <time>2021-10-10T08:33:30Z</time>
      </trkpt>
      <trkpt lat="44.82616" lon="5.04631">
        <ele>395.72</ele>
        <time>2021-10-10T08:33:42Z</time>
      </trkpt>
      <trkpt lat="44.82612" lon="5.04624">
        <ele>394.76</ele>
        <time>2021-10-10T08:33:47Z</time>
      </trkpt>
      <trkpt lat="44.8261" lon="5.04622">
        <ele>397.64</ele>
        <time>2021-10-10T08:33:49Z</time>
      </trkpt>
      <trkpt lat="44.82606" lon="5.04616">
        <ele>397.16</ele>
        <time>2021-10-10T08:33:53Z</time>
      </trkpt>
      <trkpt lat="44.82586" lon="5.04592">
        <ele>399.57</ele>
        <time>2021-10-10T08:34:12Z</time>
      </trkpt>
      <trkpt lat="44.82578" lon="5.04585">
        <ele>396.2</ele>
        <time>2021-10-10T08:34:20Z</time>
      </trkpt>
      <trkpt lat="44.82566" lon="5.0458">
        <ele>395.24</ele>
        <time>2021-10-10T08:34:29Z</time>
      </trkpt>
      <trkpt lat="44.82552" lon="5.04573">
        <ele>393.8</ele>
        <time>2021-10-10T08:34:42Z</time>
      </trkpt>
      <trkpt lat="44.82549" lon="5.04567">
        <ele>392.36</ele>
        <time>2021-10-10T08:34:46Z</time>
      </trkpt>
      <trkpt lat="44.82545" lon="5.04554">
        <ele>390.91</ele>
        <time>2021-10-10T08:34:56Z</time>
      </trkpt>
      <trkpt lat="44.82548" lon="5.04553">
        <ele>390.43</ele>
        <time>2021-10-10T08:35:10Z</time>
      </trkpt>
      <trkpt lat="44.82548" lon="5.04552">
        <ele>390.43</ele>
        <time>2021-10-10T08:35:12Z</time>
      </trkpt>
      <trkpt lat="44.82547" lon="5.04547">
        <ele>389.95</ele>
        <time>2021-10-10T08:35:17Z</time>
      </trkpt>
      <trkpt lat="44.82548" lon="5.04534">
        <ele>388.99</ele>
        <time>2021-10-10T08:35:23Z</time>
      </trkpt>
      <trkpt lat="44.82549" lon="5.04508">
        <ele>388.03</ele>
        <time>2021-10-10T08:35:36Z</time>
      </trkpt>
      <trkpt lat="44.82549" lon="5.04494">
        <ele>387.07</ele>
        <time>2021-10-10T08:35:44Z</time>
      </trkpt>
      <trkpt lat="44.82547" lon="5.04467">
        <ele>387.07</ele>
        <time>2021-10-10T08:35:58Z</time>
      </trkpt>
      <trkpt lat="44.82544" lon="5.04444">
        <ele>387.55</ele>
        <time>2021-10-10T08:36:08Z</time>
      </trkpt>
      <trkpt lat="44.82539" lon="5.04431">
        <ele>388.51</ele>
        <time>2021-10-10T08:36:20Z</time>
      </trkpt>
      <trkpt lat="44.82526" lon="5.04412">
        <ele>390.43</ele>
        <time>2021-10-10T08:36:33Z</time>
      </trkpt>
      <trkpt lat="44.82514" lon="5.04401">
        <ele>391.39</ele>
        <time>2021-10-10T08:36:44Z</time>
      </trkpt>
      <trkpt lat="44.82511" lon="5.04397">
        <ele>391.87</ele>
        <time>2021-10-10T08:36:47Z</time>
      </trkpt>
      <trkpt lat="44.82494" lon="5.04385">
        <ele>392.36</ele>
        <time>2021-10-10T08:36:58Z</time>
      </trkpt>
      <trkpt lat="44.82491" lon="5.04382">
        <ele>392.36</ele>
        <time>2021-10-10T08:37:00Z</time>
      </trkpt>
      <trkpt lat="44.82488" lon="5.0438">
        <ele>392.36</ele>
        <time>2021-10-10T08:37:03Z</time>
      </trkpt>
      <trkpt lat="44.82481" lon="5.04377">
        <ele>391.87</ele>
        <time>2021-10-10T08:37:09Z</time>
      </trkpt>
      <trkpt lat="44.82479" lon="5.04376">
        <ele>391.87</ele>
        <time>2021-10-10T08:37:11Z</time>
      </trkpt>
      <trkpt lat="44.82462" lon="5.04363">
        <ele>389.95</ele>
        <time>2021-10-10T08:37:24Z</time>
      </trkpt>
      <trkpt lat="44.82453" lon="5.04362">
        <ele>389.95</ele>
        <time>2021-10-10T08:37:33Z</time>
      </trkpt>
      <trkpt lat="44.82443" lon="5.04364">
        <ele>389.47</ele>
        <time>2021-10-10T08:37:39Z</time>
      </trkpt>
      <trkpt lat="44.82427" lon="5.04368">
        <ele>390.43</ele>
        <time>2021-10-10T08:37:52Z</time>
      </trkpt>
      <trkpt lat="44.82417" lon="5.04372">
        <ele>390.43</ele>
        <time>2021-10-10T08:37:59Z</time>
      </trkpt>
      <trkpt lat="44.82401" lon="5.04377">
        <ele>391.39</ele>
        <time>2021-10-10T08:38:12Z</time>
      </trkpt>
      <trkpt lat="44.82386" lon="5.04383">
        <ele>392.36</ele>
        <time>2021-10-10T08:38:24Z</time>
      </trkpt>
      <trkpt lat="44.82369" lon="5.04384">
        <ele>392.84</ele>
        <time>2021-10-10T08:38:35Z</time>
      </trkpt>
      <trkpt lat="44.82363" lon="5.04385">
        <ele>392.36</ele>
        <time>2021-10-10T08:38:40Z</time>
      </trkpt>
      <trkpt lat="44.8235" lon="5.04382">
        <ele>392.36</ele>
        <time>2021-10-10T08:38:51Z</time>
      </trkpt>
      <trkpt lat="44.82341" lon="5.04375">
        <ele>390.91</ele>
        <time>2021-10-10T08:38:59Z</time>
      </trkpt>
      <trkpt lat="44.82344" lon="5.04369">
        <ele>389.95</ele>
        <time>2021-10-10T08:39:05Z</time>
      </trkpt>
      <trkpt lat="44.82346" lon="5.04365">
        <ele>389.95</ele>
        <time>2021-10-10T08:39:07Z</time>
      </trkpt>
      <trkpt lat="44.82352" lon="5.04358">
        <ele>389.47</ele>
        <time>2021-10-10T08:39:12Z</time>
      </trkpt>
      <trkpt lat="44.82366" lon="5.04354">
        <ele>386.59</ele>
        <time>2021-10-10T08:39:25Z</time>
      </trkpt>
      <trkpt lat="44.82369" lon="5.04353">
        <ele>385.63</ele>
        <time>2021-10-10T08:39:29Z</time>
      </trkpt>
      <trkpt lat="44.82379" lon="5.04345">
        <ele>382.26</ele>
        <time>2021-10-10T08:39:40Z</time>
      </trkpt>
      <trkpt lat="44.82381" lon="5.04331">
        <ele>378.9</ele>
        <time>2021-10-10T08:39:50Z</time>
      </trkpt>
      <trkpt lat="44.82381" lon="5.04326">
        <ele>377.94</ele>
        <time>2021-10-10T08:39:54Z</time>
      </trkpt>
      <trkpt lat="44.82385" lon="5.04313">
        <ele>375.05</ele>
        <time>2021-10-10T08:40:05Z</time>
      </trkpt>
      <trkpt lat="44.82383" lon="5.04287">
        <ele>372.17</ele>
        <time>2021-10-10T08:40:21Z</time>
      </trkpt>
      <trkpt lat="44.82379" lon="5.04279">
        <ele>371.21</ele>
        <time>2021-10-10T08:40:25Z</time>
      </trkpt>
      <trkpt lat="44.82377" lon="5.04269">
        <ele>367.84</ele>
        <time>2021-10-10T08:40:36Z</time>
      </trkpt>
      <trkpt lat="44.82377" lon="5.04261">
        <ele>366.4</ele>
        <time>2021-10-10T08:40:40Z</time>
      </trkpt>
      <trkpt lat="44.82375" lon="5.04242">
        <ele>363.04</ele>
        <time>2021-10-10T08:40:50Z</time>
      </trkpt>
      <trkpt lat="44.82372" lon="5.0423">
        <ele>360.63</ele>
        <time>2021-10-10T08:40:57Z</time>
      </trkpt>
      <trkpt lat="44.8237" lon="5.04209">
        <ele>356.79</ele>
        <time>2021-10-10T08:41:08Z</time>
      </trkpt>
      <trkpt lat="44.82366" lon="5.04205">
        <ele>355.83</ele>
        <time>2021-10-10T08:41:13Z</time>
      </trkpt>
      <trkpt lat="44.82361" lon="5.04188">
        <ele>353.42</ele>
        <time>2021-10-10T08:41:27Z</time>
      </trkpt>
      <trkpt lat="44.82362" lon="5.04181">
        <ele>352.46</ele>
        <time>2021-10-10T08:41:31Z</time>
      </trkpt>
      <trkpt lat="44.8237" lon="5.04166">
        <ele>350.06</ele>
        <time>2021-10-10T08:41:40Z</time>
      </trkpt>
      <trkpt lat="44.82367" lon="5.04157">
        <ele>348.62</ele>
        <time>2021-10-10T08:41:44Z</time>
      </trkpt>
      <trkpt lat="44.82367" lon="5.04149">
        <ele>348.13</ele>
        <time>2021-10-10T08:41:48Z</time>
      </trkpt>
      <trkpt lat="44.82366" lon="5.04141">
        <ele>346.21</ele>
        <time>2021-10-10T08:41:53Z</time>
      </trkpt>
      <trkpt lat="44.82365" lon="5.04134">
        <ele>345.73</ele>
        <time>2021-10-10T08:41:57Z</time>
      </trkpt>
      <trkpt lat="44.82365" lon="5.0413">
        <ele>345.25</ele>
        <time>2021-10-10T08:41:59Z</time>
      </trkpt>
      <trkpt lat="44.82364" lon="5.04121">
        <ele>343.81</ele>
        <time>2021-10-10T08:42:05Z</time>
      </trkpt>
      <trkpt lat="44.82362" lon="5.04116">
        <ele>342.85</ele>
        <time>2021-10-10T08:42:08Z</time>
      </trkpt>
      <trkpt lat="44.82361" lon="5.04106">
        <ele>341.41</ele>
        <time>2021-10-10T08:42:13Z</time>
      </trkpt>
      <trkpt lat="44.8236" lon="5.04102">
        <ele>340.92</ele>
        <time>2021-10-10T08:42:16Z</time>
      </trkpt>
      <trkpt lat="44.82357" lon="5.04097">
        <ele>339.48</ele>
        <time>2021-10-10T08:42:20Z</time>
      </trkpt>
      <trkpt lat="44.82349" lon="5.04081">
        <ele>336.6</ele>
        <time>2021-10-10T08:42:33Z</time>
      </trkpt>
      <trkpt lat="44.82343" lon="5.04065">
        <ele>333.23</ele>
        <time>2021-10-10T08:42:45Z</time>
      </trkpt>
      <trkpt lat="44.82342" lon="5.0406">
        <ele>332.75</ele>
        <time>2021-10-10T08:42:48Z</time>
      </trkpt>
      <trkpt lat="44.82338" lon="5.04043">
        <ele>330.83</ele>
        <time>2021-10-10T08:42:59Z</time>
      </trkpt>
      <trkpt lat="44.82335" lon="5.04035">
        <ele>329.87</ele>
        <time>2021-10-10T08:43:04Z</time>
      </trkpt>
      <trkpt lat="44.82328" lon="5.04011">
        <ele>327.47</ele>
        <time>2021-10-10T08:43:18Z</time>
      </trkpt>
      <trkpt lat="44.82324" lon="5.03997">
        <ele>325.54</ele>
        <time>2021-10-10T08:43:29Z</time>
      </trkpt>
      <trkpt lat="44.82315" lon="5.03979">
        <ele>324.1</ele>
        <time>2021-10-10T08:43:40Z</time>
      </trkpt>
      <trkpt lat="44.82311" lon="5.03972">
        <ele>323.14</ele>
        <time>2021-10-10T08:43:59Z</time>
      </trkpt>
      <trkpt lat="44.82303" lon="5.03952">
        <ele>321.22</ele>
        <time>2021-10-10T08:44:12Z</time>
      </trkpt>
      <trkpt lat="44.82303" lon="5.0395">
        <ele>321.22</ele>
        <time>2021-10-10T08:44:14Z</time>
      </trkpt>
      <trkpt lat="44.823" lon="5.03946">
        <ele>320.26</ele>
        <time>2021-10-10T08:44:18Z</time>
      </trkpt>
    </trkseg>
  </trk>
</gpx>